<?xml version="1.0" encoding="UTF-8" standalone="no" ?>
<gpx xmlns="http://www.topografix.com/GPX/1/1" xmlns:xsi="http://www.w3.org/2001/XMLSchema-instance" xsi:schemaLocation="http://www.topografix.com/GPX/1/1 http://www.topografix.com/GPX/1/1/gpx.xsd" version="1.1" creator="VisuGPX - https://www.visugpx.com">
  <metadata>
    <name>Grotte de Lacalm Mardi 14 janv. 2020</name>
  </metadata>
  <trk>
    <name><![CDATA[La calm Mardi 14 janv. 2020]]></name>
    <trkseg>
      <trkpt lat="43.50491" lon="2.33992">
        <ele>219.72808240052</ele>
        <time>2020-01-14T12:39:58Z</time>
      </trkpt>
      <trkpt lat="43.50488" lon="2.34002">
        <ele>217.30888814948</ele>
        <time>2020-01-14T12:40:36Z</time>
      </trkpt>
      <trkpt lat="43.50479" lon="2.33999">
        <ele>217.60216242368</ele>
        <time>2020-01-14T12:43:14Z</time>
      </trkpt>
      <trkpt lat="43.50477" lon="2.33988">
        <ele>217.74702608238</ele>
        <time>2020-01-14T12:43:22Z</time>
      </trkpt>
      <trkpt lat="43.50475" lon="2.33976">
        <ele>218.93939766426</ele>
        <time>2020-01-14T12:43:28Z</time>
      </trkpt>
      <trkpt lat="43.50476" lon="2.33965">
        <ele>221.15716606862</ele>
        <time>2020-01-14T12:43:34Z</time>
      </trkpt>
      <trkpt lat="43.50483" lon="2.33958">
        <ele>222.40194961955</ele>
        <time>2020-01-14T12:43:41Z</time>
      </trkpt>
      <trkpt lat="43.50491" lon="2.33957">
        <ele>222.55125726172</ele>
        <time>2020-01-14T12:43:46Z</time>
      </trkpt>
      <trkpt lat="43.505" lon="2.33956">
        <ele>221.70675255509</ele>
        <time>2020-01-14T12:43:54Z</time>
      </trkpt>
      <trkpt lat="43.50507" lon="2.33949">
        <ele>221.90984647633</ele>
        <time>2020-01-14T12:44:02Z</time>
      </trkpt>
      <trkpt lat="43.50513" lon="2.33941">
        <ele>222.54656434645</ele>
        <time>2020-01-14T12:44:10Z</time>
      </trkpt>
      <trkpt lat="43.50517" lon="2.33932">
        <ele>221.68486262572</ele>
        <time>2020-01-14T12:44:16Z</time>
      </trkpt>
      <trkpt lat="43.50513" lon="2.33923">
        <ele>220.29109076073</ele>
        <time>2020-01-14T12:44:26Z</time>
      </trkpt>
      <trkpt lat="43.50517" lon="2.33933">
        <ele>222.66147344164</ele>
        <time>2020-01-14T12:44:44Z</time>
      </trkpt>
      <trkpt lat="43.50526" lon="2.33934">
        <ele>220.22690755978</ele>
        <time>2020-01-14T12:44:50Z</time>
      </trkpt>
      <trkpt lat="43.50534" lon="2.33939">
        <ele>219.11604336794</ele>
        <time>2020-01-14T12:45:06Z</time>
      </trkpt>
      <trkpt lat="43.50537" lon="2.3395">
        <ele>217.67603922545</ele>
        <time>2020-01-14T12:45:13Z</time>
      </trkpt>
      <trkpt lat="43.50541" lon="2.33961">
        <ele>217.72010136362</ele>
        <time>2020-01-14T12:45:20Z</time>
      </trkpt>
      <trkpt lat="43.50549" lon="2.33963">
        <ele>219.77744363774</ele>
        <time>2020-01-14T12:45:29Z</time>
      </trkpt>
      <trkpt lat="43.50557" lon="2.33965">
        <ele>222.3481952855</ele>
        <time>2020-01-14T12:45:40Z</time>
      </trkpt>
      <trkpt lat="43.50565" lon="2.33968">
        <ele>223.78058101472</ele>
        <time>2020-01-14T12:45:47Z</time>
      </trkpt>
      <trkpt lat="43.50574" lon="2.3397">
        <ele>223.53023046859</ele>
        <time>2020-01-14T12:45:55Z</time>
      </trkpt>
      <trkpt lat="43.50582" lon="2.33969">
        <ele>223.36835436782</ele>
        <time>2020-01-14T12:46:04Z</time>
      </trkpt>
      <trkpt lat="43.5059" lon="2.33967">
        <ele>222.62619318072</ele>
        <time>2020-01-14T12:46:12Z</time>
      </trkpt>
      <trkpt lat="43.50598" lon="2.33966">
        <ele>221.25331933595</ele>
        <time>2020-01-14T12:46:23Z</time>
      </trkpt>
      <trkpt lat="43.50605" lon="2.33972">
        <ele>219.79450321933</ele>
        <time>2020-01-14T12:46:32Z</time>
      </trkpt>
      <trkpt lat="43.50615" lon="2.33978">
        <ele>218.34119158214</ele>
        <time>2020-01-14T12:46:37Z</time>
      </trkpt>
      <trkpt lat="43.50622" lon="2.33982">
        <ele>218.02923469422</ele>
        <time>2020-01-14T12:46:43Z</time>
      </trkpt>
      <trkpt lat="43.5063" lon="2.33984">
        <ele>219.40484284291</ele>
        <time>2020-01-14T12:46:48Z</time>
      </trkpt>
      <trkpt lat="43.50638" lon="2.33986">
        <ele>221.24025111291</ele>
        <time>2020-01-14T12:46:53Z</time>
      </trkpt>
      <trkpt lat="43.50646" lon="2.33989">
        <ele>223.11115992499</ele>
        <time>2020-01-14T12:47:01Z</time>
      </trkpt>
      <trkpt lat="43.50653" lon="2.33993">
        <ele>223.58129605987</ele>
        <time>2020-01-14T12:47:08Z</time>
      </trkpt>
      <trkpt lat="43.5066" lon="2.33999">
        <ele>223.66136975678</ele>
        <time>2020-01-14T12:47:15Z</time>
      </trkpt>
      <trkpt lat="43.50668" lon="2.34001">
        <ele>222.41334409954</ele>
        <time>2020-01-14T12:47:22Z</time>
      </trkpt>
      <trkpt lat="43.50676" lon="2.34005">
        <ele>220.6534850318</ele>
        <time>2020-01-14T12:47:28Z</time>
      </trkpt>
      <trkpt lat="43.50684" lon="2.34008">
        <ele>221.59268076037</ele>
        <time>2020-01-14T12:47:37Z</time>
      </trkpt>
      <trkpt lat="43.50692" lon="2.34005">
        <ele>219.96317356927</ele>
        <time>2020-01-14T12:47:45Z</time>
      </trkpt>
      <trkpt lat="43.507" lon="2.34002">
        <ele>218.16132876739</ele>
        <time>2020-01-14T12:47:54Z</time>
      </trkpt>
      <trkpt lat="43.50708" lon="2.34001">
        <ele>217.03893069746</ele>
        <time>2020-01-14T12:48:03Z</time>
      </trkpt>
      <trkpt lat="43.50716" lon="2.34003">
        <ele>217.34733096805</ele>
        <time>2020-01-14T12:48:12Z</time>
      </trkpt>
      <trkpt lat="43.50725" lon="2.34005">
        <ele>215.94299226444</ele>
        <time>2020-01-14T12:48:19Z</time>
      </trkpt>
      <trkpt lat="43.50733" lon="2.34003">
        <ele>215.53474029063</ele>
        <time>2020-01-14T12:48:28Z</time>
      </trkpt>
      <trkpt lat="43.50741" lon="2.34004">
        <ele>215.93087911168</ele>
        <time>2020-01-14T12:48:35Z</time>
      </trkpt>
      <trkpt lat="43.50749" lon="2.34007">
        <ele>213.88176864046</ele>
        <time>2020-01-14T12:48:49Z</time>
      </trkpt>
      <trkpt lat="43.50747" lon="2.33995">
        <ele>214.77618433772</ele>
        <time>2020-01-14T12:49:14Z</time>
      </trkpt>
      <trkpt lat="43.50739" lon="2.3399">
        <ele>218.82880117878</ele>
        <time>2020-01-14T12:49:23Z</time>
      </trkpt>
      <trkpt lat="43.50732" lon="2.33994">
        <ele>221.6491852465</ele>
        <time>2020-01-14T12:49:30Z</time>
      </trkpt>
      <trkpt lat="43.50724" lon="2.33996">
        <ele>223.31341268214</ele>
        <time>2020-01-14T12:49:36Z</time>
      </trkpt>
      <trkpt lat="43.50716" lon="2.33998">
        <ele>222.30502259434</ele>
        <time>2020-01-14T12:49:42Z</time>
      </trkpt>
      <trkpt lat="43.50708" lon="2.33997">
        <ele>219.31030262852</ele>
        <time>2020-01-14T12:49:50Z</time>
      </trkpt>
      <trkpt lat="43.50699" lon="2.33996">
        <ele>217.71025665275</ele>
        <time>2020-01-14T12:50:01Z</time>
      </trkpt>
      <trkpt lat="43.50692" lon="2.33998">
        <ele>218.34487006531</ele>
        <time>2020-01-14T12:50:07Z</time>
      </trkpt>
      <trkpt lat="43.50684" lon="2.33996">
        <ele>219.82882749469</ele>
        <time>2020-01-14T12:50:14Z</time>
      </trkpt>
      <trkpt lat="43.50676" lon="2.33993">
        <ele>220.09939620552</ele>
        <time>2020-01-14T12:50:22Z</time>
      </trkpt>
      <trkpt lat="43.50667" lon="2.33994">
        <ele>221.10806199012</ele>
        <time>2020-01-14T12:50:28Z</time>
      </trkpt>
      <trkpt lat="43.50659" lon="2.33995">
        <ele>220.51533889492</ele>
        <time>2020-01-14T12:50:35Z</time>
      </trkpt>
      <trkpt lat="43.5065" lon="2.33994">
        <ele>219.78609100193</ele>
        <time>2020-01-14T12:50:42Z</time>
      </trkpt>
      <trkpt lat="43.50641" lon="2.33993">
        <ele>219.97114020699</ele>
        <time>2020-01-14T12:50:48Z</time>
      </trkpt>
      <trkpt lat="43.50635" lon="2.33988">
        <ele>220.12148787347</ele>
        <time>2020-01-14T12:50:56Z</time>
      </trkpt>
      <trkpt lat="43.50628" lon="2.3398">
        <ele>221.22181774139</ele>
        <time>2020-01-14T12:51:01Z</time>
      </trkpt>
      <trkpt lat="43.50621" lon="2.33976">
        <ele>221.30186568958</ele>
        <time>2020-01-14T12:51:07Z</time>
      </trkpt>
      <trkpt lat="43.50614" lon="2.33971">
        <ele>221.07962350919</ele>
        <time>2020-01-14T12:51:15Z</time>
      </trkpt>
      <trkpt lat="43.50605" lon="2.33967">
        <ele>221.01698406499</ele>
        <time>2020-01-14T12:51:22Z</time>
      </trkpt>
      <trkpt lat="43.50599" lon="2.33962">
        <ele>222.00890021211</ele>
        <time>2020-01-14T12:51:31Z</time>
      </trkpt>
      <trkpt lat="43.50592" lon="2.33954">
        <ele>222.9768954685</ele>
        <time>2020-01-14T12:51:42Z</time>
      </trkpt>
      <trkpt lat="43.50584" lon="2.3395">
        <ele>225.56050902183</ele>
        <time>2020-01-14T12:51:49Z</time>
      </trkpt>
      <trkpt lat="43.50576" lon="2.33949">
        <ele>226.0334987927</ele>
        <time>2020-01-14T12:51:56Z</time>
      </trkpt>
      <trkpt lat="43.50568" lon="2.33948">
        <ele>226.08779212991</ele>
        <time>2020-01-14T12:52:03Z</time>
      </trkpt>
      <trkpt lat="43.50559" lon="2.33947">
        <ele>226.54879707636</ele>
        <time>2020-01-14T12:52:10Z</time>
      </trkpt>
      <trkpt lat="43.50551" lon="2.33945">
        <ele>225.72387408753</ele>
        <time>2020-01-14T12:52:17Z</time>
      </trkpt>
      <trkpt lat="43.50542" lon="2.33944">
        <ele>224.66651858042</ele>
        <time>2020-01-14T12:52:26Z</time>
      </trkpt>
      <trkpt lat="43.50536" lon="2.33938">
        <ele>225.7802677083</ele>
        <time>2020-01-14T12:52:31Z</time>
      </trkpt>
      <trkpt lat="43.5053" lon="2.33931">
        <ele>226.9152455066</ele>
        <time>2020-01-14T12:52:37Z</time>
      </trkpt>
      <trkpt lat="43.50525" lon="2.33924">
        <ele>226.48739432406</ele>
        <time>2020-01-14T12:52:43Z</time>
      </trkpt>
      <trkpt lat="43.50519" lon="2.33914">
        <ele>226.1013818262</ele>
        <time>2020-01-14T12:52:49Z</time>
      </trkpt>
      <trkpt lat="43.50512" lon="2.33909">
        <ele>227.38462715561</ele>
        <time>2020-01-14T12:52:57Z</time>
      </trkpt>
      <trkpt lat="43.50504" lon="2.33905">
        <ele>229.25101471236</ele>
        <time>2020-01-14T12:53:07Z</time>
      </trkpt>
      <trkpt lat="43.50496" lon="2.33902">
        <ele>230.76500968127</ele>
        <time>2020-01-14T12:53:13Z</time>
      </trkpt>
      <trkpt lat="43.50488" lon="2.339">
        <ele>233.17547555619</ele>
        <time>2020-01-14T12:53:23Z</time>
      </trkpt>
      <trkpt lat="43.5048" lon="2.33895">
        <ele>231.67689225068</ele>
        <time>2020-01-14T12:53:32Z</time>
      </trkpt>
      <trkpt lat="43.50473" lon="2.33888">
        <ele>230.29312886847</ele>
        <time>2020-01-14T12:53:40Z</time>
      </trkpt>
      <trkpt lat="43.50465" lon="2.33885">
        <ele>231.13480129599</ele>
        <time>2020-01-14T12:53:46Z</time>
      </trkpt>
      <trkpt lat="43.50459" lon="2.33876">
        <ele>232.79812823912</ele>
        <time>2020-01-14T12:53:54Z</time>
      </trkpt>
      <trkpt lat="43.50454" lon="2.33868">
        <ele>231.90464193521</ele>
        <time>2020-01-14T12:54:01Z</time>
      </trkpt>
      <trkpt lat="43.5045" lon="2.33858">
        <ele>231.65645379599</ele>
        <time>2020-01-14T12:54:05Z</time>
      </trkpt>
      <trkpt lat="43.50447" lon="2.33848">
        <ele>231.09614804853</ele>
        <time>2020-01-14T12:54:12Z</time>
      </trkpt>
      <trkpt lat="43.50445" lon="2.33837">
        <ele>234.24393949086</ele>
        <time>2020-01-14T12:54:20Z</time>
      </trkpt>
      <trkpt lat="43.5044" lon="2.33827">
        <ele>238.1730414696</ele>
        <time>2020-01-14T12:54:27Z</time>
      </trkpt>
      <trkpt lat="43.50439" lon="2.33815">
        <ele>239.27458458016</ele>
        <time>2020-01-14T12:54:37Z</time>
      </trkpt>
      <trkpt lat="43.50437" lon="2.33804">
        <ele>240.05175515722</ele>
        <time>2020-01-14T12:54:44Z</time>
      </trkpt>
      <trkpt lat="43.50435" lon="2.33792">
        <ele>239.15655057738</ele>
        <time>2020-01-14T12:54:52Z</time>
      </trkpt>
      <trkpt lat="43.50432" lon="2.33782">
        <ele>235.81681664706</ele>
        <time>2020-01-14T12:54:59Z</time>
      </trkpt>
      <trkpt lat="43.50428" lon="2.33771">
        <ele>235.67460982974</ele>
        <time>2020-01-14T12:55:06Z</time>
      </trkpt>
      <trkpt lat="43.50423" lon="2.33762">
        <ele>237.33228305435</ele>
        <time>2020-01-14T12:55:12Z</time>
      </trkpt>
      <trkpt lat="43.50418" lon="2.33751">
        <ele>236.37366617371</ele>
        <time>2020-01-14T12:55:20Z</time>
      </trkpt>
      <trkpt lat="43.50413" lon="2.33743">
        <ele>234.09260537376</ele>
        <time>2020-01-14T12:55:30Z</time>
      </trkpt>
      <trkpt lat="43.50407" lon="2.33734">
        <ele>232.52167665474</ele>
        <time>2020-01-14T12:55:39Z</time>
      </trkpt>
      <trkpt lat="43.50401" lon="2.33726">
        <ele>231.6054509438</ele>
        <time>2020-01-14T12:55:46Z</time>
      </trkpt>
      <trkpt lat="43.50394" lon="2.33719">
        <ele>232.25541058381</ele>
        <time>2020-01-14T12:55:57Z</time>
      </trkpt>
      <trkpt lat="43.50389" lon="2.33711">
        <ele>234.4029907327</ele>
        <time>2020-01-14T12:56:03Z</time>
      </trkpt>
      <trkpt lat="43.50382" lon="2.33705">
        <ele>234.81644846709</ele>
        <time>2020-01-14T12:56:11Z</time>
      </trkpt>
      <trkpt lat="43.50376" lon="2.33697">
        <ele>234.60793858252</ele>
        <time>2020-01-14T12:56:18Z</time>
      </trkpt>
      <trkpt lat="43.50369" lon="2.33689">
        <ele>234.0352817543</ele>
        <time>2020-01-14T12:56:25Z</time>
      </trkpt>
      <trkpt lat="43.50361" lon="2.33683">
        <ele>235.1495792692</ele>
        <time>2020-01-14T12:56:33Z</time>
      </trkpt>
      <trkpt lat="43.50357" lon="2.33672">
        <ele>236.40642353166</ele>
        <time>2020-01-14T12:56:39Z</time>
      </trkpt>
      <trkpt lat="43.50354" lon="2.33661">
        <ele>237.78623723838</ele>
        <time>2020-01-14T12:56:46Z</time>
      </trkpt>
      <trkpt lat="43.50351" lon="2.3365">
        <ele>238.16578897301</ele>
        <time>2020-01-14T12:56:52Z</time>
      </trkpt>
      <trkpt lat="43.50348" lon="2.33638">
        <ele>237.87805978792</ele>
        <time>2020-01-14T12:56:57Z</time>
      </trkpt>
      <trkpt lat="43.50345" lon="2.33628">
        <ele>236.67423741646</ele>
        <time>2020-01-14T12:57:02Z</time>
      </trkpt>
      <trkpt lat="43.50342" lon="2.33617">
        <ele>233.92565302077</ele>
        <time>2020-01-14T12:57:11Z</time>
      </trkpt>
      <trkpt lat="43.50337" lon="2.33607">
        <ele>233.07290732193</ele>
        <time>2020-01-14T12:57:21Z</time>
      </trkpt>
      <trkpt lat="43.50333" lon="2.33597">
        <ele>232.5750044988</ele>
        <time>2020-01-14T12:57:27Z</time>
      </trkpt>
      <trkpt lat="43.50327" lon="2.3359">
        <ele>233.48260449616</ele>
        <time>2020-01-14T12:57:34Z</time>
      </trkpt>
      <trkpt lat="43.50323" lon="2.3358">
        <ele>234.60571902824</ele>
        <time>2020-01-14T12:57:40Z</time>
      </trkpt>
      <trkpt lat="43.5032" lon="2.3357">
        <ele>235.3250159482</ele>
        <time>2020-01-14T12:57:49Z</time>
      </trkpt>
      <trkpt lat="43.50317" lon="2.33559">
        <ele>234.02729142565</ele>
        <time>2020-01-14T12:57:56Z</time>
      </trkpt>
      <trkpt lat="43.50314" lon="2.33548">
        <ele>232.21662512474</ele>
        <time>2020-01-14T12:58:03Z</time>
      </trkpt>
      <trkpt lat="43.5031" lon="2.33537">
        <ele>232.1605336893</ele>
        <time>2020-01-14T12:58:10Z</time>
      </trkpt>
      <trkpt lat="43.50306" lon="2.33527">
        <ele>233.89520360222</ele>
        <time>2020-01-14T12:58:17Z</time>
      </trkpt>
      <trkpt lat="43.50302" lon="2.33516">
        <ele>234.17097561244</ele>
        <time>2020-01-14T12:58:24Z</time>
      </trkpt>
      <trkpt lat="43.50295" lon="2.3351">
        <ele>234.63000474746</ele>
        <time>2020-01-14T12:58:31Z</time>
      </trkpt>
      <trkpt lat="43.50288" lon="2.33504">
        <ele>237.18979298207</ele>
        <time>2020-01-14T12:58:38Z</time>
      </trkpt>
      <trkpt lat="43.50282" lon="2.33497">
        <ele>240.23388692527</ele>
        <time>2020-01-14T12:58:47Z</time>
      </trkpt>
      <trkpt lat="43.50275" lon="2.33494">
        <ele>242.01213570997</ele>
        <time>2020-01-14T12:58:51Z</time>
      </trkpt>
      <trkpt lat="43.50268" lon="2.33488">
        <ele>244.59207491941</ele>
        <time>2020-01-14T12:58:59Z</time>
      </trkpt>
      <trkpt lat="43.50263" lon="2.33478">
        <ele>243.24867724246</ele>
        <time>2020-01-14T12:59:11Z</time>
      </trkpt>
      <trkpt lat="43.50261" lon="2.33466">
        <ele>241.33922223207</ele>
        <time>2020-01-14T12:59:16Z</time>
      </trkpt>
      <trkpt lat="43.50259" lon="2.33456">
        <ele>241.01507410077</ele>
        <time>2020-01-14T12:59:21Z</time>
      </trkpt>
      <trkpt lat="43.50256" lon="2.33445">
        <ele>241.48801621695</ele>
        <time>2020-01-14T12:59:28Z</time>
      </trkpt>
      <trkpt lat="43.5025" lon="2.33436">
        <ele>241.06427742759</ele>
        <time>2020-01-14T12:59:34Z</time>
      </trkpt>
      <trkpt lat="43.50244" lon="2.33427">
        <ele>239.60623332042</ele>
        <time>2020-01-14T12:59:41Z</time>
      </trkpt>
      <trkpt lat="43.5024" lon="2.33417">
        <ele>240.48493952069</ele>
        <time>2020-01-14T12:59:51Z</time>
      </trkpt>
      <trkpt lat="43.50235" lon="2.33408">
        <ele>242.88655675973</ele>
        <time>2020-01-14T12:59:59Z</time>
      </trkpt>
      <trkpt lat="43.50229" lon="2.33402">
        <ele>245.32995415381</ele>
        <time>2020-01-14T13:00:04Z</time>
      </trkpt>
      <trkpt lat="43.50224" lon="2.33392">
        <ele>247.9783893235</ele>
        <time>2020-01-14T13:00:16Z</time>
      </trkpt>
      <trkpt lat="43.50223" lon="2.33381">
        <ele>251.28429060538</ele>
        <time>2020-01-14T13:00:21Z</time>
      </trkpt>
      <trkpt lat="43.50217" lon="2.33372">
        <ele>252.13269182566</ele>
        <time>2020-01-14T13:00:27Z</time>
      </trkpt>
      <trkpt lat="43.50213" lon="2.33361">
        <ele>250.88173199939</ele>
        <time>2020-01-14T13:00:33Z</time>
      </trkpt>
      <trkpt lat="43.5021" lon="2.33351">
        <ele>250.75264619355</ele>
        <time>2020-01-14T13:00:39Z</time>
      </trkpt>
      <trkpt lat="43.50207" lon="2.3334">
        <ele>247.58428458266</ele>
        <time>2020-01-14T13:00:50Z</time>
      </trkpt>
      <trkpt lat="43.50201" lon="2.33331">
        <ele>247.54536445384</ele>
        <time>2020-01-14T13:00:58Z</time>
      </trkpt>
      <trkpt lat="43.50197" lon="2.33321">
        <ele>245.86982021431</ele>
        <time>2020-01-14T13:01:03Z</time>
      </trkpt>
      <trkpt lat="43.50192" lon="2.33311">
        <ele>246.29107309721</ele>
        <time>2020-01-14T13:01:11Z</time>
      </trkpt>
      <trkpt lat="43.50187" lon="2.33302">
        <ele>248.43934119817</ele>
        <time>2020-01-14T13:01:20Z</time>
      </trkpt>
      <trkpt lat="43.50181" lon="2.33295">
        <ele>251.97547552975</ele>
        <time>2020-01-14T13:01:29Z</time>
      </trkpt>
      <trkpt lat="43.50176" lon="2.33285">
        <ele>256.0930436683</ele>
        <time>2020-01-14T13:01:38Z</time>
      </trkpt>
      <trkpt lat="43.50171" lon="2.33275">
        <ele>259.30818265519</ele>
        <time>2020-01-14T13:01:45Z</time>
      </trkpt>
      <trkpt lat="43.50167" lon="2.33266">
        <ele>262.59371545863</ele>
        <time>2020-01-14T13:01:53Z</time>
      </trkpt>
      <trkpt lat="43.50161" lon="2.33257">
        <ele>263.10427088306</ele>
        <time>2020-01-14T13:02:02Z</time>
      </trkpt>
      <trkpt lat="43.50157" lon="2.33247">
        <ele>262.01288071983</ele>
        <time>2020-01-14T13:02:12Z</time>
      </trkpt>
      <trkpt lat="43.50152" lon="2.33236">
        <ele>260.73210250467</ele>
        <time>2020-01-14T13:02:21Z</time>
      </trkpt>
      <trkpt lat="43.50147" lon="2.33227">
        <ele>259.56232858272</ele>
        <time>2020-01-14T13:02:31Z</time>
      </trkpt>
      <trkpt lat="43.5014" lon="2.33219">
        <ele>259.02321179522</ele>
        <time>2020-01-14T13:02:37Z</time>
      </trkpt>
      <trkpt lat="43.50137" lon="2.3321">
        <ele>259.35336426839</ele>
        <time>2020-01-14T13:02:42Z</time>
      </trkpt>
      <trkpt lat="43.50132" lon="2.33202">
        <ele>259.37326162436</ele>
        <time>2020-01-14T13:02:46Z</time>
      </trkpt>
      <trkpt lat="43.50127" lon="2.33192">
        <ele>257.78769539469</ele>
        <time>2020-01-14T13:02:55Z</time>
      </trkpt>
      <trkpt lat="43.50122" lon="2.33183">
        <ele>257.51786834825</ele>
        <time>2020-01-14T13:03:01Z</time>
      </trkpt>
      <trkpt lat="43.50117" lon="2.33173">
        <ele>254.96398991672</ele>
        <time>2020-01-14T13:03:10Z</time>
      </trkpt>
      <trkpt lat="43.50114" lon="2.33162">
        <ele>252.96632871777</ele>
        <time>2020-01-14T13:03:17Z</time>
      </trkpt>
      <trkpt lat="43.5011" lon="2.33153">
        <ele>253.63906514163</ele>
        <time>2020-01-14T13:03:24Z</time>
      </trkpt>
      <trkpt lat="43.50104" lon="2.33144">
        <ele>255.16506495309</ele>
        <time>2020-01-14T13:03:32Z</time>
      </trkpt>
      <trkpt lat="43.501" lon="2.33134">
        <ele>257.22610157509</ele>
        <time>2020-01-14T13:03:38Z</time>
      </trkpt>
      <trkpt lat="43.50095" lon="2.33124">
        <ele>256.9741862452</ele>
        <time>2020-01-14T13:03:47Z</time>
      </trkpt>
      <trkpt lat="43.50089" lon="2.33115">
        <ele>255.91947793403</ele>
        <time>2020-01-14T13:03:53Z</time>
      </trkpt>
      <trkpt lat="43.50084" lon="2.33105">
        <ele>258.83774044689</ele>
        <time>2020-01-14T13:04:00Z</time>
      </trkpt>
      <trkpt lat="43.50079" lon="2.33097">
        <ele>261.03009395482</ele>
        <time>2020-01-14T13:04:07Z</time>
      </trkpt>
      <trkpt lat="43.50075" lon="2.33087">
        <ele>261.8876915412</ele>
        <time>2020-01-14T13:04:13Z</time>
      </trkpt>
      <trkpt lat="43.50071" lon="2.33078">
        <ele>262.21134954833</ele>
        <time>2020-01-14T13:04:20Z</time>
      </trkpt>
      <trkpt lat="43.50067" lon="2.33068">
        <ele>262.36148500692</ele>
        <time>2020-01-14T13:04:27Z</time>
      </trkpt>
      <trkpt lat="43.50065" lon="2.33058">
        <ele>262.22435702688</ele>
        <time>2020-01-14T13:04:34Z</time>
      </trkpt>
      <trkpt lat="43.50061" lon="2.33046">
        <ele>261.55340408572</ele>
        <time>2020-01-14T13:04:42Z</time>
      </trkpt>
      <trkpt lat="43.50058" lon="2.33036">
        <ele>262.11074291361</ele>
        <time>2020-01-14T13:04:49Z</time>
      </trkpt>
      <trkpt lat="43.50055" lon="2.33026">
        <ele>263.15010399285</ele>
        <time>2020-01-14T13:04:56Z</time>
      </trkpt>
      <trkpt lat="43.50052" lon="2.33015">
        <ele>262.8628627007</ele>
        <time>2020-01-14T13:05:02Z</time>
      </trkpt>
      <trkpt lat="43.5005" lon="2.33003">
        <ele>263.33378677893</ele>
        <time>2020-01-14T13:05:09Z</time>
      </trkpt>
      <trkpt lat="43.50046" lon="2.32992">
        <ele>262.79968858041</ele>
        <time>2020-01-14T13:05:17Z</time>
      </trkpt>
      <trkpt lat="43.50043" lon="2.32981">
        <ele>262.69165202466</ele>
        <time>2020-01-14T13:05:26Z</time>
      </trkpt>
      <trkpt lat="43.50039" lon="2.32971">
        <ele>262.75600956595</ele>
        <time>2020-01-14T13:05:33Z</time>
      </trkpt>
      <trkpt lat="43.50034" lon="2.32962">
        <ele>263.98540446904</ele>
        <time>2020-01-14T13:05:39Z</time>
      </trkpt>
      <trkpt lat="43.50029" lon="2.32952">
        <ele>263.36867073513</ele>
        <time>2020-01-14T13:05:45Z</time>
      </trkpt>
      <trkpt lat="43.50026" lon="2.32942">
        <ele>262.43216711192</ele>
        <time>2020-01-14T13:05:52Z</time>
      </trkpt>
      <trkpt lat="43.50022" lon="2.32932">
        <ele>262.0973002715</ele>
        <time>2020-01-14T13:05:59Z</time>
      </trkpt>
      <trkpt lat="43.50017" lon="2.32922">
        <ele>260.62324071625</ele>
        <time>2020-01-14T13:06:08Z</time>
      </trkpt>
      <trkpt lat="43.50014" lon="2.32912">
        <ele>258.86953203995</ele>
        <time>2020-01-14T13:06:14Z</time>
      </trkpt>
      <trkpt lat="43.5001" lon="2.32902">
        <ele>259.19420956522</ele>
        <time>2020-01-14T13:06:20Z</time>
      </trkpt>
      <trkpt lat="43.50006" lon="2.32891">
        <ele>260.23049789505</ele>
        <time>2020-01-14T13:06:30Z</time>
      </trkpt>
      <trkpt lat="43.50012" lon="2.32883">
        <ele>260.91304600781</ele>
        <time>2020-01-14T13:06:58Z</time>
      </trkpt>
      <trkpt lat="43.5002" lon="2.32881">
        <ele>263.08895855271</ele>
        <time>2020-01-14T13:07:07Z</time>
      </trkpt>
      <trkpt lat="43.50029" lon="2.32884">
        <ele>264.32595833701</ele>
        <time>2020-01-14T13:07:17Z</time>
      </trkpt>
      <trkpt lat="43.50036" lon="2.32879">
        <ele>265.24531654964</ele>
        <time>2020-01-14T13:07:26Z</time>
      </trkpt>
      <trkpt lat="43.50043" lon="2.32874">
        <ele>265.34954400847</ele>
        <time>2020-01-14T13:07:33Z</time>
      </trkpt>
      <trkpt lat="43.50053" lon="2.32872">
        <ele>266.36150962263</ele>
        <time>2020-01-14T13:07:38Z</time>
      </trkpt>
      <trkpt lat="43.50059" lon="2.32865">
        <ele>264.96866739518</ele>
        <time>2020-01-14T13:07:46Z</time>
      </trkpt>
      <trkpt lat="43.50064" lon="2.32854">
        <ele>262.04850765171</ele>
        <time>2020-01-14T13:07:51Z</time>
      </trkpt>
      <trkpt lat="43.50066" lon="2.32844">
        <ele>261.62903225438</ele>
        <time>2020-01-14T13:08:32Z</time>
      </trkpt>
      <trkpt lat="43.5006" lon="2.3285">
        <ele>272.54599536022</ele>
        <time>2020-01-14T13:10:25Z</time>
      </trkpt>
      <trkpt lat="43.50061" lon="2.32862">
        <ele>264.38785190218</ele>
        <time>2020-01-14T13:10:56Z</time>
      </trkpt>
      <trkpt lat="43.50055" lon="2.32869">
        <ele>262.17726284783</ele>
        <time>2020-01-14T13:11:08Z</time>
      </trkpt>
      <trkpt lat="43.50049" lon="2.32876">
        <ele>260.49595578773</ele>
        <time>2020-01-14T13:11:16Z</time>
      </trkpt>
      <trkpt lat="43.50041" lon="2.32882">
        <ele>260.86367229119</ele>
        <time>2020-01-14T13:11:23Z</time>
      </trkpt>
      <trkpt lat="43.50033" lon="2.3288">
        <ele>260.19427822484</ele>
        <time>2020-01-14T13:11:32Z</time>
      </trkpt>
      <trkpt lat="43.50024" lon="2.32881">
        <ele>258.57705609305</ele>
        <time>2020-01-14T13:11:36Z</time>
      </trkpt>
      <trkpt lat="43.50016" lon="2.32883">
        <ele>258.38068078861</ele>
        <time>2020-01-14T13:11:47Z</time>
      </trkpt>
      <trkpt lat="43.50007" lon="2.32882">
        <ele>258.49322175353</ele>
        <time>2020-01-14T13:11:55Z</time>
      </trkpt>
      <trkpt lat="43.50004" lon="2.32871">
        <ele>256.60504665792</ele>
        <time>2020-01-14T13:12:04Z</time>
      </trkpt>
      <trkpt lat="43.49997" lon="2.32863">
        <ele>260.75673029013</ele>
        <time>2020-01-14T13:12:36Z</time>
      </trkpt>
      <trkpt lat="43.49989" lon="2.3286">
        <ele>260.47162242886</ele>
        <time>2020-01-14T13:12:47Z</time>
      </trkpt>
      <trkpt lat="43.49982" lon="2.32855">
        <ele>259.748777912</ele>
        <time>2020-01-14T13:12:52Z</time>
      </trkpt>
      <trkpt lat="43.49977" lon="2.32845">
        <ele>260.21876131464</ele>
        <time>2020-01-14T13:13:01Z</time>
      </trkpt>
      <trkpt lat="43.49972" lon="2.32835">
        <ele>261.5304630138</ele>
        <time>2020-01-14T13:13:09Z</time>
      </trkpt>
      <trkpt lat="43.4997" lon="2.32823">
        <ele>262.20201159641</ele>
        <time>2020-01-14T13:13:18Z</time>
      </trkpt>
      <trkpt lat="43.49969" lon="2.32813">
        <ele>263.36272680666</ele>
        <time>2020-01-14T13:13:27Z</time>
      </trkpt>
      <trkpt lat="43.49968" lon="2.32801">
        <ele>266.22020932008</ele>
        <time>2020-01-14T13:13:34Z</time>
      </trkpt>
      <trkpt lat="43.49966" lon="2.32791">
        <ele>266.16628147662</ele>
        <time>2020-01-14T13:13:46Z</time>
      </trkpt>
      <trkpt lat="43.49963" lon="2.32781">
        <ele>266.21872746479</ele>
        <time>2020-01-14T13:13:52Z</time>
      </trkpt>
      <trkpt lat="43.49959" lon="2.32771">
        <ele>266.88647914212</ele>
        <time>2020-01-14T13:13:58Z</time>
      </trkpt>
      <trkpt lat="43.49954" lon="2.32762">
        <ele>267.35546859726</ele>
        <time>2020-01-14T13:14:04Z</time>
      </trkpt>
      <trkpt lat="43.49952" lon="2.3275">
        <ele>268.02190662641</ele>
        <time>2020-01-14T13:14:12Z</time>
      </trkpt>
      <trkpt lat="43.49948" lon="2.32739">
        <ele>269.0810623467</ele>
        <time>2020-01-14T13:14:25Z</time>
      </trkpt>
      <trkpt lat="43.49942" lon="2.32733">
        <ele>268.65132794064</ele>
        <time>2020-01-14T13:14:34Z</time>
      </trkpt>
      <trkpt lat="43.4995" lon="2.32735">
        <ele>272.60217639338</ele>
        <time>2020-01-14T13:15:17Z</time>
      </trkpt>
      <trkpt lat="43.49959" lon="2.32733">
        <ele>272.09712144546</ele>
        <time>2020-01-14T13:15:25Z</time>
      </trkpt>
      <trkpt lat="43.49967" lon="2.32733">
        <ele>272.50577730685</ele>
        <time>2020-01-14T13:15:32Z</time>
      </trkpt>
      <trkpt lat="43.49975" lon="2.32733">
        <ele>273.11869526654</ele>
        <time>2020-01-14T13:15:39Z</time>
      </trkpt>
      <trkpt lat="43.49984" lon="2.32731">
        <ele>273.42758243252</ele>
        <time>2020-01-14T13:15:49Z</time>
      </trkpt>
      <trkpt lat="43.49992" lon="2.32728">
        <ele>273.60148270894</ele>
        <time>2020-01-14T13:15:54Z</time>
      </trkpt>
      <trkpt lat="43.5" lon="2.32725">
        <ele>273.50076081688</ele>
        <time>2020-01-14T13:16:02Z</time>
      </trkpt>
      <trkpt lat="43.50009" lon="2.32722">
        <ele>272.03752604562</ele>
        <time>2020-01-14T13:16:11Z</time>
      </trkpt>
      <trkpt lat="43.50017" lon="2.32718">
        <ele>270.9834841601</ele>
        <time>2020-01-14T13:16:19Z</time>
      </trkpt>
      <trkpt lat="43.50025" lon="2.32714">
        <ele>268.8472972655</ele>
        <time>2020-01-14T13:16:28Z</time>
      </trkpt>
      <trkpt lat="43.50033" lon="2.32711">
        <ele>268.9392629488</ele>
        <time>2020-01-14T13:16:34Z</time>
      </trkpt>
      <trkpt lat="43.50041" lon="2.32708">
        <ele>270.27344021942</ele>
        <time>2020-01-14T13:16:42Z</time>
      </trkpt>
      <trkpt lat="43.5005" lon="2.32705">
        <ele>271.05007936282</ele>
        <time>2020-01-14T13:16:50Z</time>
      </trkpt>
      <trkpt lat="43.50058" lon="2.32702">
        <ele>270.61216623384</ele>
        <time>2020-01-14T13:16:57Z</time>
      </trkpt>
      <trkpt lat="43.50065" lon="2.32698">
        <ele>270.66528874404</ele>
        <time>2020-01-14T13:17:04Z</time>
      </trkpt>
      <trkpt lat="43.50073" lon="2.32694">
        <ele>270.28608453312</ele>
        <time>2020-01-14T13:17:11Z</time>
      </trkpt>
      <trkpt lat="43.50081" lon="2.32692">
        <ele>269.12071440923</ele>
        <time>2020-01-14T13:17:16Z</time>
      </trkpt>
      <trkpt lat="43.50089" lon="2.32689">
        <ele>268.75608556668</ele>
        <time>2020-01-14T13:17:24Z</time>
      </trkpt>
      <trkpt lat="43.50097" lon="2.32687">
        <ele>268.76108835507</ele>
        <time>2020-01-14T13:17:32Z</time>
      </trkpt>
      <trkpt lat="43.50106" lon="2.32684">
        <ele>269.51238464533</ele>
        <time>2020-01-14T13:17:39Z</time>
      </trkpt>
      <trkpt lat="43.50114" lon="2.32681">
        <ele>269.18308471375</ele>
        <time>2020-01-14T13:17:46Z</time>
      </trkpt>
      <trkpt lat="43.50123" lon="2.32679">
        <ele>268.67376442887</ele>
        <time>2020-01-14T13:17:52Z</time>
      </trkpt>
      <trkpt lat="43.50131" lon="2.32675">
        <ele>268.49756706938</ele>
        <time>2020-01-14T13:17:58Z</time>
      </trkpt>
      <trkpt lat="43.50138" lon="2.3267">
        <ele>268.01035724699</ele>
        <time>2020-01-14T13:18:04Z</time>
      </trkpt>
      <trkpt lat="43.50145" lon="2.32664">
        <ele>267.27404767785</ele>
        <time>2020-01-14T13:18:11Z</time>
      </trkpt>
      <trkpt lat="43.50152" lon="2.32656">
        <ele>266.95384614592</ele>
        <time>2020-01-14T13:18:20Z</time>
      </trkpt>
      <trkpt lat="43.50157" lon="2.32648">
        <ele>266.98247623354</ele>
        <time>2020-01-14T13:18:25Z</time>
      </trkpt>
      <trkpt lat="43.50164" lon="2.32641">
        <ele>266.97261583245</ele>
        <time>2020-01-14T13:18:31Z</time>
      </trkpt>
      <trkpt lat="43.5017" lon="2.32635">
        <ele>266.78672858162</ele>
        <time>2020-01-14T13:18:39Z</time>
      </trkpt>
      <trkpt lat="43.50178" lon="2.32629">
        <ele>266.52929165442</ele>
        <time>2020-01-14T13:18:46Z</time>
      </trkpt>
      <trkpt lat="43.50185" lon="2.32625">
        <ele>266.53841731488</ele>
        <time>2020-01-14T13:18:53Z</time>
      </trkpt>
      <trkpt lat="43.50193" lon="2.32621">
        <ele>265.92087416184</ele>
        <time>2020-01-14T13:18:59Z</time>
      </trkpt>
      <trkpt lat="43.50201" lon="2.32615">
        <ele>265.60856146606</ele>
        <time>2020-01-14T13:19:07Z</time>
      </trkpt>
      <trkpt lat="43.50208" lon="2.3261">
        <ele>265.01890187388</ele>
        <time>2020-01-14T13:19:15Z</time>
      </trkpt>
      <trkpt lat="43.50216" lon="2.32606">
        <ele>264.76661124552</ele>
        <time>2020-01-14T13:19:20Z</time>
      </trkpt>
      <trkpt lat="43.50224" lon="2.32603">
        <ele>264.53901055683</ele>
        <time>2020-01-14T13:19:25Z</time>
      </trkpt>
      <trkpt lat="43.50231" lon="2.32599">
        <ele>264.8244804344</ele>
        <time>2020-01-14T13:19:31Z</time>
      </trkpt>
      <trkpt lat="43.50238" lon="2.32593">
        <ele>264.84130205623</ele>
        <time>2020-01-14T13:19:37Z</time>
      </trkpt>
      <trkpt lat="43.50245" lon="2.32589">
        <ele>264.19679712517</ele>
        <time>2020-01-14T13:19:45Z</time>
      </trkpt>
      <trkpt lat="43.50254" lon="2.32586">
        <ele>264.92325649213</ele>
        <time>2020-01-14T13:19:51Z</time>
      </trkpt>
      <trkpt lat="43.50262" lon="2.32583">
        <ele>264.1941967406</ele>
        <time>2020-01-14T13:20:01Z</time>
      </trkpt>
      <trkpt lat="43.5027" lon="2.32578">
        <ele>264.11182640003</ele>
        <time>2020-01-14T13:20:10Z</time>
      </trkpt>
      <trkpt lat="43.50279" lon="2.32575">
        <ele>263.67792444804</ele>
        <time>2020-01-14T13:20:17Z</time>
      </trkpt>
      <trkpt lat="43.50287" lon="2.32572">
        <ele>263.30982296948</ele>
        <time>2020-01-14T13:20:21Z</time>
      </trkpt>
      <trkpt lat="43.50295" lon="2.32569">
        <ele>262.70104989419</ele>
        <time>2020-01-14T13:20:27Z</time>
      </trkpt>
      <trkpt lat="43.50303" lon="2.32566">
        <ele>263.61039366902</ele>
        <time>2020-01-14T13:20:33Z</time>
      </trkpt>
      <trkpt lat="43.5031" lon="2.32569">
        <ele>262.7338574392</ele>
        <time>2020-01-14T13:20:41Z</time>
      </trkpt>
      <trkpt lat="43.50318" lon="2.32575">
        <ele>261.30801937501</ele>
        <time>2020-01-14T13:20:50Z</time>
      </trkpt>
      <trkpt lat="43.50326" lon="2.32571">
        <ele>261.47316309459</ele>
        <time>2020-01-14T13:20:58Z</time>
      </trkpt>
      <trkpt lat="43.50333" lon="2.32564">
        <ele>260.81485169356</ele>
        <time>2020-01-14T13:21:05Z</time>
      </trkpt>
      <trkpt lat="43.5034" lon="2.32558">
        <ele>260.21600924965</ele>
        <time>2020-01-14T13:21:13Z</time>
      </trkpt>
      <trkpt lat="43.50347" lon="2.32551">
        <ele>258.74292650594</ele>
        <time>2020-01-14T13:21:21Z</time>
      </trkpt>
      <trkpt lat="43.50354" lon="2.32545">
        <ele>258.75874561308</ele>
        <time>2020-01-14T13:21:27Z</time>
      </trkpt>
      <trkpt lat="43.50361" lon="2.32538">
        <ele>258.57061944545</ele>
        <time>2020-01-14T13:21:35Z</time>
      </trkpt>
      <trkpt lat="43.50369" lon="2.32535">
        <ele>257.13544447457</ele>
        <time>2020-01-14T13:21:42Z</time>
      </trkpt>
      <trkpt lat="43.50376" lon="2.32531">
        <ele>256.90111609798</ele>
        <time>2020-01-14T13:21:47Z</time>
      </trkpt>
      <trkpt lat="43.50384" lon="2.32527">
        <ele>257.04786765703</ele>
        <time>2020-01-14T13:21:54Z</time>
      </trkpt>
      <trkpt lat="43.50392" lon="2.32524">
        <ele>257.98015725703</ele>
        <time>2020-01-14T13:22:00Z</time>
      </trkpt>
      <trkpt lat="43.50399" lon="2.32518">
        <ele>258.50598566254</ele>
        <time>2020-01-14T13:22:06Z</time>
      </trkpt>
      <trkpt lat="43.50405" lon="2.32509">
        <ele>258.59152696138</ele>
        <time>2020-01-14T13:22:12Z</time>
      </trkpt>
      <trkpt lat="43.50409" lon="2.32501">
        <ele>259.06821581116</ele>
        <time>2020-01-14T13:22:19Z</time>
      </trkpt>
      <trkpt lat="43.50414" lon="2.32492">
        <ele>258.48815508168</ele>
        <time>2020-01-14T13:22:26Z</time>
      </trkpt>
      <trkpt lat="43.50418" lon="2.32482">
        <ele>258.15202776435</ele>
        <time>2020-01-14T13:22:33Z</time>
      </trkpt>
      <trkpt lat="43.50422" lon="2.32472">
        <ele>257.61947368073</ele>
        <time>2020-01-14T13:22:38Z</time>
      </trkpt>
      <trkpt lat="43.50424" lon="2.32461">
        <ele>257.28068569894</ele>
        <time>2020-01-14T13:22:44Z</time>
      </trkpt>
      <trkpt lat="43.50427" lon="2.3245">
        <ele>256.70058462479</ele>
        <time>2020-01-14T13:22:50Z</time>
      </trkpt>
      <trkpt lat="43.50428" lon="2.32438">
        <ele>256.7110065905</ele>
        <time>2020-01-14T13:23:00Z</time>
      </trkpt>
      <trkpt lat="43.50419" lon="2.3244">
        <ele>256.55887391323</ele>
        <time>2020-01-14T13:23:06Z</time>
      </trkpt>
      <trkpt lat="43.50412" lon="2.32438">
        <ele>256.44579452152</ele>
        <time>2020-01-14T13:23:12Z</time>
      </trkpt>
      <trkpt lat="43.50404" lon="2.32434">
        <ele>256.10024149078</ele>
        <time>2020-01-14T13:23:20Z</time>
      </trkpt>
      <trkpt lat="43.50396" lon="2.32433">
        <ele>256.33905030069</ele>
        <time>2020-01-14T13:23:26Z</time>
      </trkpt>
      <trkpt lat="43.50387" lon="2.32431">
        <ele>255.15132567273</ele>
        <time>2020-01-14T13:23:33Z</time>
      </trkpt>
      <trkpt lat="43.50379" lon="2.32429">
        <ele>255.29817804048</ele>
        <time>2020-01-14T13:23:40Z</time>
      </trkpt>
      <trkpt lat="43.5037" lon="2.32426">
        <ele>255.46026604235</ele>
        <time>2020-01-14T13:23:47Z</time>
      </trkpt>
      <trkpt lat="43.50362" lon="2.32422">
        <ele>255.89389152051</ele>
        <time>2020-01-14T13:23:54Z</time>
      </trkpt>
      <trkpt lat="43.50354" lon="2.3242">
        <ele>256.76083061797</ele>
        <time>2020-01-14T13:23:59Z</time>
      </trkpt>
      <trkpt lat="43.50346" lon="2.32418">
        <ele>258.34929786527</ele>
        <time>2020-01-14T13:24:05Z</time>
      </trkpt>
      <trkpt lat="43.50338" lon="2.32418">
        <ele>259.67556945444</ele>
        <time>2020-01-14T13:24:12Z</time>
      </trkpt>
      <trkpt lat="43.50329" lon="2.32417">
        <ele>260.9813218786</ele>
        <time>2020-01-14T13:24:19Z</time>
      </trkpt>
      <trkpt lat="43.50321" lon="2.32415">
        <ele>261.23904437673</ele>
        <time>2020-01-14T13:24:25Z</time>
      </trkpt>
      <trkpt lat="43.50312" lon="2.32415">
        <ele>261.1915062964</ele>
        <time>2020-01-14T13:24:31Z</time>
      </trkpt>
      <trkpt lat="43.50304" lon="2.32412">
        <ele>261.40769709903</ele>
        <time>2020-01-14T13:24:37Z</time>
      </trkpt>
      <trkpt lat="43.50296" lon="2.3241">
        <ele>262.79386958496</ele>
        <time>2020-01-14T13:24:44Z</time>
      </trkpt>
      <trkpt lat="43.50287" lon="2.32407">
        <ele>262.95491764494</ele>
        <time>2020-01-14T13:24:52Z</time>
      </trkpt>
      <trkpt lat="43.50279" lon="2.32405">
        <ele>262.49347683459</ele>
        <time>2020-01-14T13:24:58Z</time>
      </trkpt>
      <trkpt lat="43.50272" lon="2.32397">
        <ele>260.3460079374</ele>
        <time>2020-01-14T13:25:06Z</time>
      </trkpt>
      <trkpt lat="43.50267" lon="2.32389">
        <ele>259.9051645729</ele>
        <time>2020-01-14T13:25:11Z</time>
      </trkpt>
      <trkpt lat="43.50262" lon="2.3238">
        <ele>259.91061269329</ele>
        <time>2020-01-14T13:25:17Z</time>
      </trkpt>
      <trkpt lat="43.50258" lon="2.3237">
        <ele>260.22033606621</ele>
        <time>2020-01-14T13:25:25Z</time>
      </trkpt>
      <trkpt lat="43.50255" lon="2.32359">
        <ele>260.37660900313</ele>
        <time>2020-01-14T13:25:32Z</time>
      </trkpt>
      <trkpt lat="43.50253" lon="2.32346">
        <ele>259.26783966024</ele>
        <time>2020-01-14T13:25:39Z</time>
      </trkpt>
      <trkpt lat="43.50251" lon="2.32336">
        <ele>258.53394595307</ele>
        <time>2020-01-14T13:25:45Z</time>
      </trkpt>
      <trkpt lat="43.50249" lon="2.32324">
        <ele>257.80140707335</ele>
        <time>2020-01-14T13:25:54Z</time>
      </trkpt>
      <trkpt lat="43.50249" lon="2.32312">
        <ele>256.66066910157</ele>
        <time>2020-01-14T13:26:01Z</time>
      </trkpt>
      <trkpt lat="43.50248" lon="2.323">
        <ele>255.24217545272</ele>
        <time>2020-01-14T13:26:07Z</time>
      </trkpt>
      <trkpt lat="43.50246" lon="2.32288">
        <ele>253.2974823875</ele>
        <time>2020-01-14T13:26:13Z</time>
      </trkpt>
      <trkpt lat="43.50242" lon="2.32278">
        <ele>254.1721785168</ele>
        <time>2020-01-14T13:26:21Z</time>
      </trkpt>
      <trkpt lat="43.50237" lon="2.32268">
        <ele>255.35577512582</ele>
        <time>2020-01-14T13:26:28Z</time>
      </trkpt>
      <trkpt lat="43.50231" lon="2.32259">
        <ele>255.09123443415</ele>
        <time>2020-01-14T13:26:36Z</time>
      </trkpt>
      <trkpt lat="43.50226" lon="2.32249">
        <ele>253.66425968086</ele>
        <time>2020-01-14T13:26:43Z</time>
      </trkpt>
      <trkpt lat="43.50221" lon="2.3224">
        <ele>254.32915241748</ele>
        <time>2020-01-14T13:26:49Z</time>
      </trkpt>
      <trkpt lat="43.50216" lon="2.32231">
        <ele>254.15090234787</ele>
        <time>2020-01-14T13:26:56Z</time>
      </trkpt>
      <trkpt lat="43.50212" lon="2.3222">
        <ele>253.72926466359</ele>
        <time>2020-01-14T13:27:04Z</time>
      </trkpt>
      <trkpt lat="43.5021" lon="2.32209">
        <ele>253.66482867935</ele>
        <time>2020-01-14T13:27:11Z</time>
      </trkpt>
      <trkpt lat="43.50211" lon="2.32197">
        <ele>253.75682603773</ele>
        <time>2020-01-14T13:27:17Z</time>
      </trkpt>
      <trkpt lat="43.50214" lon="2.32187">
        <ele>253.30152904403</ele>
        <time>2020-01-14T13:27:25Z</time>
      </trkpt>
      <trkpt lat="43.50219" lon="2.32177">
        <ele>252.95864181521</ele>
        <time>2020-01-14T13:27:30Z</time>
      </trkpt>
      <trkpt lat="43.50223" lon="2.32168">
        <ele>252.25330675271</ele>
        <time>2020-01-14T13:27:37Z</time>
      </trkpt>
      <trkpt lat="43.50228" lon="2.32158">
        <ele>252.84943614917</ele>
        <time>2020-01-14T13:27:45Z</time>
      </trkpt>
      <trkpt lat="43.50231" lon="2.32147">
        <ele>254.23138983171</ele>
        <time>2020-01-14T13:27:53Z</time>
      </trkpt>
      <trkpt lat="43.50228" lon="2.32136">
        <ele>254.10378565446</ele>
        <time>2020-01-14T13:28:03Z</time>
      </trkpt>
      <trkpt lat="43.50224" lon="2.32126">
        <ele>254.52630948259</ele>
        <time>2020-01-14T13:29:51Z</time>
      </trkpt>
      <trkpt lat="43.50217" lon="2.32119">
        <ele>254.08369300466</ele>
        <time>2020-01-14T13:29:58Z</time>
      </trkpt>
      <trkpt lat="43.5021" lon="2.32111">
        <ele>253.87045176132</ele>
        <time>2020-01-14T13:30:05Z</time>
      </trkpt>
      <trkpt lat="43.50205" lon="2.32102">
        <ele>254.74320147812</ele>
        <time>2020-01-14T13:30:13Z</time>
      </trkpt>
      <trkpt lat="43.502" lon="2.32094">
        <ele>254.63830970165</ele>
        <time>2020-01-14T13:30:19Z</time>
      </trkpt>
      <trkpt lat="43.50195" lon="2.32084">
        <ele>254.06943826279</ele>
        <time>2020-01-14T13:30:28Z</time>
      </trkpt>
      <trkpt lat="43.50191" lon="2.32075">
        <ele>253.52769331775</ele>
        <time>2020-01-14T13:30:35Z</time>
      </trkpt>
      <trkpt lat="43.50186" lon="2.32067">
        <ele>254.67143164272</ele>
        <time>2020-01-14T13:30:41Z</time>
      </trkpt>
      <trkpt lat="43.50179" lon="2.32058">
        <ele>256.00868960457</ele>
        <time>2020-01-14T13:30:47Z</time>
      </trkpt>
      <trkpt lat="43.50173" lon="2.32051">
        <ele>257.08879524602</ele>
        <time>2020-01-14T13:30:55Z</time>
      </trkpt>
      <trkpt lat="43.50167" lon="2.32044">
        <ele>257.74873053671</ele>
        <time>2020-01-14T13:31:03Z</time>
      </trkpt>
      <trkpt lat="43.50161" lon="2.32036">
        <ele>257.6967669664</ele>
        <time>2020-01-14T13:31:09Z</time>
      </trkpt>
      <trkpt lat="43.50156" lon="2.32027">
        <ele>257.70942568845</ele>
        <time>2020-01-14T13:31:16Z</time>
      </trkpt>
      <trkpt lat="43.5015" lon="2.32018">
        <ele>258.66419265243</ele>
        <time>2020-01-14T13:31:23Z</time>
      </trkpt>
      <trkpt lat="43.50146" lon="2.32008">
        <ele>258.64151188393</ele>
        <time>2020-01-14T13:31:31Z</time>
      </trkpt>
      <trkpt lat="43.50142" lon="2.31999">
        <ele>258.21043814605</ele>
        <time>2020-01-14T13:31:38Z</time>
      </trkpt>
      <trkpt lat="43.50137" lon="2.31989">
        <ele>258.94795934455</ele>
        <time>2020-01-14T13:31:46Z</time>
      </trkpt>
      <trkpt lat="43.5013" lon="2.31982">
        <ele>260.12585865779</ele>
        <time>2020-01-14T13:31:55Z</time>
      </trkpt>
      <trkpt lat="43.50122" lon="2.3198">
        <ele>261.44459195237</ele>
        <time>2020-01-14T13:32:03Z</time>
      </trkpt>
      <trkpt lat="43.50114" lon="2.31982">
        <ele>263.88674448433</ele>
        <time>2020-01-14T13:32:15Z</time>
      </trkpt>
      <trkpt lat="43.50106" lon="2.31984">
        <ele>265.35399615555</ele>
        <time>2020-01-14T13:32:23Z</time>
      </trkpt>
      <trkpt lat="43.50098" lon="2.31984">
        <ele>266.71042392658</ele>
        <time>2020-01-14T13:32:30Z</time>
      </trkpt>
      <trkpt lat="43.5009" lon="2.31981">
        <ele>268.46030736291</ele>
        <time>2020-01-14T13:32:38Z</time>
      </trkpt>
      <trkpt lat="43.50082" lon="2.31978">
        <ele>269.33333257157</ele>
        <time>2020-01-14T13:32:45Z</time>
      </trkpt>
      <trkpt lat="43.50073" lon="2.31975">
        <ele>269.69892940921</ele>
        <time>2020-01-14T13:32:52Z</time>
      </trkpt>
      <trkpt lat="43.50066" lon="2.31974">
        <ele>270.36425302687</ele>
        <time>2020-01-14T13:32:58Z</time>
      </trkpt>
      <trkpt lat="43.50057" lon="2.31972">
        <ele>271.15516806775</ele>
        <time>2020-01-14T13:33:06Z</time>
      </trkpt>
      <trkpt lat="43.5005" lon="2.31966">
        <ele>272.08184693497</ele>
        <time>2020-01-14T13:33:12Z</time>
      </trkpt>
      <trkpt lat="43.50043" lon="2.31962">
        <ele>273.31752843059</ele>
        <time>2020-01-14T13:33:19Z</time>
      </trkpt>
      <trkpt lat="43.50036" lon="2.31956">
        <ele>273.77266540124</ele>
        <time>2020-01-14T13:33:27Z</time>
      </trkpt>
      <trkpt lat="43.50029" lon="2.31947">
        <ele>275.49150172387</ele>
        <time>2020-01-14T13:33:36Z</time>
      </trkpt>
      <trkpt lat="43.50027" lon="2.31935">
        <ele>274.4778504489</ele>
        <time>2020-01-14T13:33:42Z</time>
      </trkpt>
      <trkpt lat="43.50026" lon="2.31923">
        <ele>274.82215730545</ele>
        <time>2020-01-14T13:33:49Z</time>
      </trkpt>
      <trkpt lat="43.5002" lon="2.31915">
        <ele>275.89659470984</ele>
        <time>2020-01-14T13:33:57Z</time>
      </trkpt>
      <trkpt lat="43.50016" lon="2.31905">
        <ele>278.37061089665</ele>
        <time>2020-01-14T13:34:04Z</time>
      </trkpt>
      <trkpt lat="43.50012" lon="2.31894">
        <ele>281.06316929387</ele>
        <time>2020-01-14T13:34:14Z</time>
      </trkpt>
      <trkpt lat="43.50011" lon="2.31882">
        <ele>277.98946064219</ele>
        <time>2020-01-14T13:34:26Z</time>
      </trkpt>
      <trkpt lat="43.50008" lon="2.31871">
        <ele>277.52656991538</ele>
        <time>2020-01-14T13:34:33Z</time>
      </trkpt>
      <trkpt lat="43.50005" lon="2.31861">
        <ele>278.59407121567</ele>
        <time>2020-01-14T13:34:40Z</time>
      </trkpt>
      <trkpt lat="43.50001" lon="2.31851">
        <ele>278.36029116459</ele>
        <time>2020-01-14T13:34:48Z</time>
      </trkpt>
      <trkpt lat="43.49998" lon="2.3184">
        <ele>279.47193358932</ele>
        <time>2020-01-14T13:34:59Z</time>
      </trkpt>
      <trkpt lat="43.49995" lon="2.31829">
        <ele>279.54839585721</ele>
        <time>2020-01-14T13:35:09Z</time>
      </trkpt>
      <trkpt lat="43.50003" lon="2.31823">
        <ele>279.26142857416</ele>
        <time>2020-01-14T13:35:21Z</time>
      </trkpt>
      <trkpt lat="43.50011" lon="2.31827">
        <ele>279.27706180643</ele>
        <time>2020-01-14T13:35:30Z</time>
      </trkpt>
      <trkpt lat="43.50019" lon="2.31831">
        <ele>278.00320267148</ele>
        <time>2020-01-14T13:35:39Z</time>
      </trkpt>
      <trkpt lat="43.50027" lon="2.31834">
        <ele>277.38451121278</ele>
        <time>2020-01-14T13:35:47Z</time>
      </trkpt>
      <trkpt lat="43.50036" lon="2.31837">
        <ele>276.13232900891</ele>
        <time>2020-01-14T13:35:54Z</time>
      </trkpt>
      <trkpt lat="43.50044" lon="2.31842">
        <ele>274.52463846468</ele>
        <time>2020-01-14T13:36:03Z</time>
      </trkpt>
      <trkpt lat="43.50052" lon="2.31846">
        <ele>273.06975066219</ele>
        <time>2020-01-14T13:36:12Z</time>
      </trkpt>
      <trkpt lat="43.5006" lon="2.31849">
        <ele>273.37532127678</ele>
        <time>2020-01-14T13:36:19Z</time>
      </trkpt>
      <trkpt lat="43.50068" lon="2.31852">
        <ele>274.14343246838</ele>
        <time>2020-01-14T13:36:27Z</time>
      </trkpt>
      <trkpt lat="43.50077" lon="2.31853">
        <ele>273.39622698198</ele>
        <time>2020-01-14T13:36:35Z</time>
      </trkpt>
      <trkpt lat="43.50085" lon="2.31856">
        <ele>272.98350606347</ele>
        <time>2020-01-14T13:36:42Z</time>
      </trkpt>
      <trkpt lat="43.50094" lon="2.31855">
        <ele>271.72764449971</ele>
        <time>2020-01-14T13:36:51Z</time>
      </trkpt>
      <trkpt lat="43.50102" lon="2.31855">
        <ele>271.08355623731</ele>
        <time>2020-01-14T13:37:00Z</time>
      </trkpt>
      <trkpt lat="43.50111" lon="2.31854">
        <ele>268.89067147454</ele>
        <time>2020-01-14T13:37:07Z</time>
      </trkpt>
      <trkpt lat="43.50119" lon="2.31851">
        <ele>268.08670954472</ele>
        <time>2020-01-14T13:37:16Z</time>
      </trkpt>
      <trkpt lat="43.50128" lon="2.31848">
        <ele>268.4172586105</ele>
        <time>2020-01-14T13:37:23Z</time>
      </trkpt>
      <trkpt lat="43.50136" lon="2.31845">
        <ele>268.68745326996</ele>
        <time>2020-01-14T13:37:29Z</time>
      </trkpt>
      <trkpt lat="43.50144" lon="2.31844">
        <ele>266.41682512328</ele>
        <time>2020-01-14T13:37:39Z</time>
      </trkpt>
      <trkpt lat="43.50153" lon="2.31841">
        <ele>266.01811890378</ele>
        <time>2020-01-14T13:37:48Z</time>
      </trkpt>
      <trkpt lat="43.50161" lon="2.31841">
        <ele>265.20708180506</ele>
        <time>2020-01-14T13:37:56Z</time>
      </trkpt>
      <trkpt lat="43.50168" lon="2.31838">
        <ele>263.56825439137</ele>
        <time>2020-01-14T13:38:01Z</time>
      </trkpt>
      <trkpt lat="43.50177" lon="2.31836">
        <ele>262.86562917915</ele>
        <time>2020-01-14T13:38:08Z</time>
      </trkpt>
      <trkpt lat="43.50185" lon="2.31834">
        <ele>262.49375511477</ele>
        <time>2020-01-14T13:38:17Z</time>
      </trkpt>
      <trkpt lat="43.50193" lon="2.31831">
        <ele>260.68188623549</ele>
        <time>2020-01-14T13:38:26Z</time>
      </trkpt>
      <trkpt lat="43.50201" lon="2.31826">
        <ele>257.61808206382</ele>
        <time>2020-01-14T13:38:34Z</time>
      </trkpt>
      <trkpt lat="43.50208" lon="2.31822">
        <ele>256.5547697722</ele>
        <time>2020-01-14T13:38:43Z</time>
      </trkpt>
      <trkpt lat="43.50217" lon="2.31821">
        <ele>257.24552694567</ele>
        <time>2020-01-14T13:38:49Z</time>
      </trkpt>
      <trkpt lat="43.50225" lon="2.31819">
        <ele>257.59484903342</ele>
        <time>2020-01-14T13:38:58Z</time>
      </trkpt>
      <trkpt lat="43.50234" lon="2.31816">
        <ele>256.74837341751</ele>
        <time>2020-01-14T13:39:07Z</time>
      </trkpt>
      <trkpt lat="43.50242" lon="2.31813">
        <ele>256.73077245933</ele>
        <time>2020-01-14T13:39:14Z</time>
      </trkpt>
      <trkpt lat="43.5025" lon="2.31809">
        <ele>256.0396611442</ele>
        <time>2020-01-14T13:39:20Z</time>
      </trkpt>
      <trkpt lat="43.50258" lon="2.31806">
        <ele>255.99525905208</ele>
        <time>2020-01-14T13:39:26Z</time>
      </trkpt>
      <trkpt lat="43.50266" lon="2.31806">
        <ele>256.19601818969</ele>
        <time>2020-01-14T13:39:34Z</time>
      </trkpt>
      <trkpt lat="43.50275" lon="2.31805">
        <ele>256.34775740609</ele>
        <time>2020-01-14T13:39:40Z</time>
      </trkpt>
      <trkpt lat="43.50282" lon="2.31801">
        <ele>256.30186493895</ele>
        <time>2020-01-14T13:39:46Z</time>
      </trkpt>
      <trkpt lat="43.5029" lon="2.31798">
        <ele>256.84340917822</ele>
        <time>2020-01-14T13:39:54Z</time>
      </trkpt>
      <trkpt lat="43.50299" lon="2.31797">
        <ele>257.68893399219</ele>
        <time>2020-01-14T13:40:02Z</time>
      </trkpt>
      <trkpt lat="43.50307" lon="2.31794">
        <ele>257.48256487404</ele>
        <time>2020-01-14T13:40:13Z</time>
      </trkpt>
      <trkpt lat="43.50315" lon="2.31792">
        <ele>257.6209112226</ele>
        <time>2020-01-14T13:40:18Z</time>
      </trkpt>
      <trkpt lat="43.50323" lon="2.3179">
        <ele>258.66819150634</ele>
        <time>2020-01-14T13:40:25Z</time>
      </trkpt>
      <trkpt lat="43.50332" lon="2.31787">
        <ele>258.92310365701</ele>
        <time>2020-01-14T13:40:31Z</time>
      </trkpt>
      <trkpt lat="43.50341" lon="2.31785">
        <ele>258.00111800291</ele>
        <time>2020-01-14T13:40:38Z</time>
      </trkpt>
      <trkpt lat="43.50349" lon="2.31783">
        <ele>257.15799726332</ele>
        <time>2020-01-14T13:40:45Z</time>
      </trkpt>
      <trkpt lat="43.50358" lon="2.31782">
        <ele>256.49151233392</ele>
        <time>2020-01-14T13:40:52Z</time>
      </trkpt>
      <trkpt lat="43.50365" lon="2.31779">
        <ele>256.53130447974</ele>
        <time>2020-01-14T13:40:58Z</time>
      </trkpt>
      <trkpt lat="43.50374" lon="2.31777">
        <ele>256.77900085748</ele>
        <time>2020-01-14T13:41:05Z</time>
      </trkpt>
      <trkpt lat="43.50382" lon="2.31777">
        <ele>257.94884197895</ele>
        <time>2020-01-14T13:41:12Z</time>
      </trkpt>
      <trkpt lat="43.50391" lon="2.31777">
        <ele>258.56962159048</ele>
        <time>2020-01-14T13:41:20Z</time>
      </trkpt>
      <trkpt lat="43.504" lon="2.31777">
        <ele>259.35121767589</ele>
        <time>2020-01-14T13:41:25Z</time>
      </trkpt>
      <trkpt lat="43.50408" lon="2.31779">
        <ele>259.54902708624</ele>
        <time>2020-01-14T13:41:32Z</time>
      </trkpt>
      <trkpt lat="43.50416" lon="2.31779">
        <ele>258.87605893614</ele>
        <time>2020-01-14T13:41:36Z</time>
      </trkpt>
      <trkpt lat="43.50424" lon="2.31782">
        <ele>258.38794045524</ele>
        <time>2020-01-14T13:41:42Z</time>
      </trkpt>
      <trkpt lat="43.50431" lon="2.31786">
        <ele>257.80976181609</ele>
        <time>2020-01-14T13:41:48Z</time>
      </trkpt>
      <trkpt lat="43.50439" lon="2.31789">
        <ele>257.0084267032</ele>
        <time>2020-01-14T13:41:54Z</time>
      </trkpt>
      <trkpt lat="43.50448" lon="2.3179">
        <ele>256.40890790075</ele>
        <time>2020-01-14T13:42:03Z</time>
      </trkpt>
      <trkpt lat="43.50454" lon="2.31782">
        <ele>257.42605018419</ele>
        <time>2020-01-14T13:42:14Z</time>
      </trkpt>
      <trkpt lat="43.50459" lon="2.31775">
        <ele>255.55626963469</ele>
        <time>2020-01-14T13:42:21Z</time>
      </trkpt>
      <trkpt lat="43.50466" lon="2.31766">
        <ele>254.45416231877</ele>
        <time>2020-01-14T13:42:27Z</time>
      </trkpt>
      <trkpt lat="43.50471" lon="2.31757">
        <ele>257.42344933288</ele>
        <time>2020-01-14T13:42:33Z</time>
      </trkpt>
      <trkpt lat="43.5047" lon="2.31746">
        <ele>258.17262871627</ele>
        <time>2020-01-14T13:42:40Z</time>
      </trkpt>
      <trkpt lat="43.50465" lon="2.31737">
        <ele>258.54542346552</ele>
        <time>2020-01-14T13:42:50Z</time>
      </trkpt>
      <trkpt lat="43.50458" lon="2.31728">
        <ele>259.81011206075</ele>
        <time>2020-01-14T13:42:58Z</time>
      </trkpt>
      <trkpt lat="43.50451" lon="2.31723">
        <ele>259.77160280006</ele>
        <time>2020-01-14T13:43:05Z</time>
      </trkpt>
      <trkpt lat="43.50445" lon="2.31718">
        <ele>260.18775507083</ele>
        <time>2020-01-14T13:43:10Z</time>
      </trkpt>
      <trkpt lat="43.50437" lon="2.31712">
        <ele>261.13756513221</ele>
        <time>2020-01-14T13:43:16Z</time>
      </trkpt>
      <trkpt lat="43.50431" lon="2.31706">
        <ele>261.70457518593</ele>
        <time>2020-01-14T13:43:22Z</time>
      </trkpt>
      <trkpt lat="43.50424" lon="2.31698">
        <ele>262.36440360453</ele>
        <time>2020-01-14T13:43:28Z</time>
      </trkpt>
      <trkpt lat="43.50417" lon="2.31692">
        <ele>263.35819780537</ele>
        <time>2020-01-14T13:43:35Z</time>
      </trkpt>
      <trkpt lat="43.50409" lon="2.31688">
        <ele>264.59578298191</ele>
        <time>2020-01-14T13:43:41Z</time>
      </trkpt>
      <trkpt lat="43.50402" lon="2.31681">
        <ele>265.55119689337</ele>
        <time>2020-01-14T13:43:46Z</time>
      </trkpt>
      <trkpt lat="43.50395" lon="2.31673">
        <ele>264.16628961396</ele>
        <time>2020-01-14T13:43:53Z</time>
      </trkpt>
      <trkpt lat="43.50389" lon="2.31665">
        <ele>262.92145532107</ele>
        <time>2020-01-14T13:43:59Z</time>
      </trkpt>
      <trkpt lat="43.50385" lon="2.31655">
        <ele>262.02442266684</ele>
        <time>2020-01-14T13:44:07Z</time>
      </trkpt>
      <trkpt lat="43.50381" lon="2.31645">
        <ele>260.40583221915</ele>
        <time>2020-01-14T13:44:13Z</time>
      </trkpt>
      <trkpt lat="43.50376" lon="2.31636">
        <ele>259.9283963256</ele>
        <time>2020-01-14T13:44:19Z</time>
      </trkpt>
      <trkpt lat="43.50373" lon="2.31625">
        <ele>259.51844780016</ele>
        <time>2020-01-14T13:44:27Z</time>
      </trkpt>
      <trkpt lat="43.50369" lon="2.31615">
        <ele>260.21973538234</ele>
        <time>2020-01-14T13:44:34Z</time>
      </trkpt>
      <trkpt lat="43.50366" lon="2.31605">
        <ele>259.94323986944</ele>
        <time>2020-01-14T13:44:40Z</time>
      </trkpt>
      <trkpt lat="43.50362" lon="2.31594">
        <ele>258.01151244273</ele>
        <time>2020-01-14T13:44:46Z</time>
      </trkpt>
      <trkpt lat="43.5036" lon="2.31582">
        <ele>257.76796572277</ele>
        <time>2020-01-14T13:44:55Z</time>
      </trkpt>
      <trkpt lat="43.50356" lon="2.31572">
        <ele>258.01034837767</ele>
        <time>2020-01-14T13:45:03Z</time>
      </trkpt>
      <trkpt lat="43.50352" lon="2.31562">
        <ele>259.22532387033</ele>
        <time>2020-01-14T13:45:09Z</time>
      </trkpt>
      <trkpt lat="43.50349" lon="2.3155">
        <ele>259.55860334941</ele>
        <time>2020-01-14T13:45:16Z</time>
      </trkpt>
      <trkpt lat="43.50346" lon="2.31541">
        <ele>260.00579031368</ele>
        <time>2020-01-14T13:45:23Z</time>
      </trkpt>
      <trkpt lat="43.50342" lon="2.31529">
        <ele>260.17187052393</ele>
        <time>2020-01-14T13:45:29Z</time>
      </trkpt>
      <trkpt lat="43.50339" lon="2.31518">
        <ele>259.22675808312</ele>
        <time>2020-01-14T13:45:37Z</time>
      </trkpt>
      <trkpt lat="43.50336" lon="2.31507">
        <ele>258.33139580372</ele>
        <time>2020-01-14T13:45:45Z</time>
      </trkpt>
      <trkpt lat="43.50333" lon="2.31496">
        <ele>257.79764233813</ele>
        <time>2020-01-14T13:45:54Z</time>
      </trkpt>
      <trkpt lat="43.50331" lon="2.31485">
        <ele>257.51140025011</ele>
        <time>2020-01-14T13:46:00Z</time>
      </trkpt>
      <trkpt lat="43.50331" lon="2.31473">
        <ele>258.67629277686</ele>
        <time>2020-01-14T13:46:06Z</time>
      </trkpt>
      <trkpt lat="43.50329" lon="2.31462">
        <ele>260.57891692715</ele>
        <time>2020-01-14T13:46:14Z</time>
      </trkpt>
      <trkpt lat="43.50329" lon="2.3145">
        <ele>261.09944262617</ele>
        <time>2020-01-14T13:46:22Z</time>
      </trkpt>
      <trkpt lat="43.50328" lon="2.31439">
        <ele>261.14706065243</ele>
        <time>2020-01-14T13:46:28Z</time>
      </trkpt>
      <trkpt lat="43.50328" lon="2.31428">
        <ele>261.29490297993</ele>
        <time>2020-01-14T13:46:34Z</time>
      </trkpt>
      <trkpt lat="43.50329" lon="2.31418">
        <ele>261.86474645266</ele>
        <time>2020-01-14T13:46:38Z</time>
      </trkpt>
      <trkpt lat="43.50331" lon="2.31406">
        <ele>261.88623086258</ele>
        <time>2020-01-14T13:46:46Z</time>
      </trkpt>
      <trkpt lat="43.50334" lon="2.31395">
        <ele>261.83235768787</ele>
        <time>2020-01-14T13:46:53Z</time>
      </trkpt>
      <trkpt lat="43.50337" lon="2.31385">
        <ele>262.45256022866</ele>
        <time>2020-01-14T13:47:00Z</time>
      </trkpt>
      <trkpt lat="43.50341" lon="2.31374">
        <ele>263.53798538959</ele>
        <time>2020-01-14T13:47:08Z</time>
      </trkpt>
      <trkpt lat="43.50346" lon="2.31364">
        <ele>265.01892974331</ele>
        <time>2020-01-14T13:47:17Z</time>
      </trkpt>
      <trkpt lat="43.50349" lon="2.31353">
        <ele>266.42100582252</ele>
        <time>2020-01-14T13:47:26Z</time>
      </trkpt>
      <trkpt lat="43.50353" lon="2.31342">
        <ele>267.77727085667</ele>
        <time>2020-01-14T13:47:34Z</time>
      </trkpt>
      <trkpt lat="43.50355" lon="2.31331">
        <ele>269.08379964505</ele>
        <time>2020-01-14T13:47:41Z</time>
      </trkpt>
      <trkpt lat="43.50356" lon="2.31319">
        <ele>270.53689154117</ele>
        <time>2020-01-14T13:47:49Z</time>
      </trkpt>
      <trkpt lat="43.50354" lon="2.31308">
        <ele>269.97509089783</ele>
        <time>2020-01-14T13:47:59Z</time>
      </trkpt>
      <trkpt lat="43.5035" lon="2.31297">
        <ele>270.81818612104</ele>
        <time>2020-01-14T13:48:08Z</time>
      </trkpt>
      <trkpt lat="43.50342" lon="2.31293">
        <ele>272.03752085887</ele>
        <time>2020-01-14T13:48:22Z</time>
      </trkpt>
      <trkpt lat="43.50333" lon="2.31293">
        <ele>273.1098196274</ele>
        <time>2020-01-14T13:48:30Z</time>
      </trkpt>
      <trkpt lat="43.50325" lon="2.31293">
        <ele>274.74007676234</ele>
        <time>2020-01-14T13:48:41Z</time>
      </trkpt>
      <trkpt lat="43.50318" lon="2.31294">
        <ele>276.44186616028</ele>
        <time>2020-01-14T13:48:51Z</time>
      </trkpt>
      <trkpt lat="43.5031" lon="2.31296">
        <ele>277.81850324985</ele>
        <time>2020-01-14T13:48:57Z</time>
      </trkpt>
      <trkpt lat="43.50301" lon="2.31295">
        <ele>278.24474602532</ele>
        <time>2020-01-14T13:49:09Z</time>
      </trkpt>
      <trkpt lat="43.50293" lon="2.31294">
        <ele>278.39053965633</ele>
        <time>2020-01-14T13:49:15Z</time>
      </trkpt>
      <trkpt lat="43.50284" lon="2.31294">
        <ele>279.32200247923</ele>
        <time>2020-01-14T13:49:24Z</time>
      </trkpt>
      <trkpt lat="43.50276" lon="2.31294">
        <ele>279.82154035685</ele>
        <time>2020-01-14T13:49:32Z</time>
      </trkpt>
      <trkpt lat="43.50268" lon="2.31291">
        <ele>280.98774544987</ele>
        <time>2020-01-14T13:49:40Z</time>
      </trkpt>
      <trkpt lat="43.50264" lon="2.31281">
        <ele>281.87758284538</ele>
        <time>2020-01-14T13:49:51Z</time>
      </trkpt>
      <trkpt lat="43.50261" lon="2.31269">
        <ele>281.45658058482</ele>
        <time>2020-01-14T13:50:00Z</time>
      </trkpt>
      <trkpt lat="43.50258" lon="2.31258">
        <ele>282.57932777239</ele>
        <time>2020-01-14T13:50:22Z</time>
      </trkpt>
      <trkpt lat="43.50257" lon="2.31246">
        <ele>282.17571745406</ele>
        <time>2020-01-14T13:54:12Z</time>
      </trkpt>
      <trkpt lat="43.50254" lon="2.31236">
        <ele>282.83623971656</ele>
        <time>2020-01-14T13:54:21Z</time>
      </trkpt>
      <trkpt lat="43.50249" lon="2.31226">
        <ele>283.37105097066</ele>
        <time>2020-01-14T13:54:28Z</time>
      </trkpt>
      <trkpt lat="43.50244" lon="2.31216">
        <ele>286.16610295698</ele>
        <time>2020-01-14T13:54:41Z</time>
      </trkpt>
      <trkpt lat="43.50237" lon="2.3121">
        <ele>289.70620134476</ele>
        <time>2020-01-14T13:54:57Z</time>
      </trkpt>
      <trkpt lat="43.50229" lon="2.31207">
        <ele>291.53195393343</ele>
        <time>2020-01-14T13:55:03Z</time>
      </trkpt>
      <trkpt lat="43.50221" lon="2.31203">
        <ele>292.95844611931</ele>
        <time>2020-01-14T13:55:08Z</time>
      </trkpt>
      <trkpt lat="43.50213" lon="2.312">
        <ele>293.92266379814</ele>
        <time>2020-01-14T13:55:14Z</time>
      </trkpt>
      <trkpt lat="43.50205" lon="2.31196">
        <ele>292.81868236127</ele>
        <time>2020-01-14T13:55:21Z</time>
      </trkpt>
      <trkpt lat="43.50197" lon="2.31192">
        <ele>292.54127173339</ele>
        <time>2020-01-14T13:55:33Z</time>
      </trkpt>
      <trkpt lat="43.5019" lon="2.31184">
        <ele>293.09580346764</ele>
        <time>2020-01-14T13:55:41Z</time>
      </trkpt>
      <trkpt lat="43.50185" lon="2.31177">
        <ele>294.46500546745</ele>
        <time>2020-01-14T13:55:48Z</time>
      </trkpt>
      <trkpt lat="43.50178" lon="2.31169">
        <ele>293.69894091848</ele>
        <time>2020-01-14T13:55:56Z</time>
      </trkpt>
      <trkpt lat="43.50174" lon="2.3116">
        <ele>293.5040403661</ele>
        <time>2020-01-14T13:56:03Z</time>
      </trkpt>
      <trkpt lat="43.50169" lon="2.31151">
        <ele>293.29014041224</ele>
        <time>2020-01-14T13:56:11Z</time>
      </trkpt>
      <trkpt lat="43.50163" lon="2.31144">
        <ele>294.42277302725</ele>
        <time>2020-01-14T13:56:18Z</time>
      </trkpt>
      <trkpt lat="43.50159" lon="2.31133">
        <ele>295.78597425505</ele>
        <time>2020-01-14T13:56:27Z</time>
      </trkpt>
      <trkpt lat="43.50154" lon="2.31123">
        <ele>296.9070986804</ele>
        <time>2020-01-14T13:56:37Z</time>
      </trkpt>
      <trkpt lat="43.50149" lon="2.31115">
        <ele>297.09355978361</ele>
        <time>2020-01-14T13:56:42Z</time>
      </trkpt>
      <trkpt lat="43.50147" lon="2.31105">
        <ele>298.60753371614</ele>
        <time>2020-01-14T13:56:51Z</time>
      </trkpt>
      <trkpt lat="43.50143" lon="2.31095">
        <ele>299.57922011683</ele>
        <time>2020-01-14T13:56:57Z</time>
      </trkpt>
      <trkpt lat="43.50139" lon="2.31085">
        <ele>300.00329910825</ele>
        <time>2020-01-14T13:57:04Z</time>
      </trkpt>
      <trkpt lat="43.50135" lon="2.31075">
        <ele>299.01179220266</ele>
        <time>2020-01-14T13:57:10Z</time>
      </trkpt>
      <trkpt lat="43.5013" lon="2.31066">
        <ele>301.13554995356</ele>
        <time>2020-01-14T13:57:17Z</time>
      </trkpt>
      <trkpt lat="43.50123" lon="2.31058">
        <ele>301.10472785915</ele>
        <time>2020-01-14T13:57:31Z</time>
      </trkpt>
      <trkpt lat="43.50117" lon="2.31052">
        <ele>300.68490886927</ele>
        <time>2020-01-14T13:57:37Z</time>
      </trkpt>
      <trkpt lat="43.50109" lon="2.31046">
        <ele>301.05631454454</ele>
        <time>2020-01-14T13:57:42Z</time>
      </trkpt>
      <trkpt lat="43.50102" lon="2.31041">
        <ele>300.74530255781</ele>
        <time>2020-01-14T13:57:49Z</time>
      </trkpt>
      <trkpt lat="43.50093" lon="2.3104">
        <ele>300.33172968197</ele>
        <time>2020-01-14T13:57:55Z</time>
      </trkpt>
      <trkpt lat="43.50084" lon="2.3104">
        <ele>298.72631386385</ele>
        <time>2020-01-14T13:58:02Z</time>
      </trkpt>
      <trkpt lat="43.50076" lon="2.31039">
        <ele>299.57347248807</ele>
        <time>2020-01-14T13:58:09Z</time>
      </trkpt>
      <trkpt lat="43.50067" lon="2.31042">
        <ele>300.45522071708</ele>
        <time>2020-01-14T13:58:17Z</time>
      </trkpt>
      <trkpt lat="43.50059" lon="2.31044">
        <ele>299.21254811795</ele>
        <time>2020-01-14T13:58:26Z</time>
      </trkpt>
      <trkpt lat="43.5005" lon="2.31043">
        <ele>298.1840023273</ele>
        <time>2020-01-14T13:58:33Z</time>
      </trkpt>
      <trkpt lat="43.50041" lon="2.31042">
        <ele>298.25058540728</ele>
        <time>2020-01-14T13:58:43Z</time>
      </trkpt>
      <trkpt lat="43.50033" lon="2.31042">
        <ele>298.87263678056</ele>
        <time>2020-01-14T13:58:52Z</time>
      </trkpt>
      <trkpt lat="43.50024" lon="2.31042">
        <ele>300.15525387692</ele>
        <time>2020-01-14T13:58:59Z</time>
      </trkpt>
      <trkpt lat="43.50016" lon="2.31046">
        <ele>300.0405821107</ele>
        <time>2020-01-14T13:59:05Z</time>
      </trkpt>
      <trkpt lat="43.50008" lon="2.31048">
        <ele>301.27779115683</ele>
        <time>2020-01-14T13:59:16Z</time>
      </trkpt>
      <trkpt lat="43.5" lon="2.31045">
        <ele>301.57055318356</ele>
        <time>2020-01-14T13:59:29Z</time>
      </trkpt>
      <trkpt lat="43.49993" lon="2.31039">
        <ele>301.59845477715</ele>
        <time>2020-01-14T14:00:59Z</time>
      </trkpt>
      <trkpt lat="43.49987" lon="2.31047">
        <ele>300.80485822167</ele>
        <time>2020-01-14T14:01:04Z</time>
      </trkpt>
      <trkpt lat="43.49981" lon="2.31054">
        <ele>300.6386411814</ele>
        <time>2020-01-14T14:01:10Z</time>
      </trkpt>
      <trkpt lat="43.49973" lon="2.31059">
        <ele>301.75412653759</ele>
        <time>2020-01-14T14:01:19Z</time>
      </trkpt>
      <trkpt lat="43.49965" lon="2.31065">
        <ele>301.98489603214</ele>
        <time>2020-01-14T14:01:28Z</time>
      </trkpt>
      <trkpt lat="43.49961" lon="2.31074">
        <ele>301.31073173322</ele>
        <time>2020-01-14T14:01:39Z</time>
      </trkpt>
      <trkpt lat="43.49955" lon="2.31082">
        <ele>301.78516761679</ele>
        <time>2020-01-14T14:01:46Z</time>
      </trkpt>
      <trkpt lat="43.49949" lon="2.31087">
        <ele>301.99706760608</ele>
        <time>2020-01-14T14:01:58Z</time>
      </trkpt>
      <trkpt lat="43.49941" lon="2.31092">
        <ele>301.98839112837</ele>
        <time>2020-01-14T14:02:02Z</time>
      </trkpt>
      <trkpt lat="43.49935" lon="2.31099">
        <ele>303.30843316205</ele>
        <time>2020-01-14T14:02:09Z</time>
      </trkpt>
      <trkpt lat="43.49927" lon="2.31104">
        <ele>304.21792890411</ele>
        <time>2020-01-14T14:02:23Z</time>
      </trkpt>
      <trkpt lat="43.49919" lon="2.31106">
        <ele>305.04671571124</ele>
        <time>2020-01-14T14:02:28Z</time>
      </trkpt>
      <trkpt lat="43.49911" lon="2.31109">
        <ele>306.42811104003</ele>
        <time>2020-01-14T14:02:35Z</time>
      </trkpt>
      <trkpt lat="43.49904" lon="2.31114">
        <ele>306.30540415924</ele>
        <time>2020-01-14T14:02:43Z</time>
      </trkpt>
      <trkpt lat="43.49896" lon="2.31119">
        <ele>309.71316492185</ele>
        <time>2020-01-14T14:02:52Z</time>
      </trkpt>
      <trkpt lat="43.49888" lon="2.31122">
        <ele>311.22140484024</ele>
        <time>2020-01-14T14:02:58Z</time>
      </trkpt>
      <trkpt lat="43.4988" lon="2.31128">
        <ele>311.68146494962</ele>
        <time>2020-01-14T14:03:08Z</time>
      </trkpt>
      <trkpt lat="43.49874" lon="2.31135">
        <ele>310.71738051251</ele>
        <time>2020-01-14T14:03:18Z</time>
      </trkpt>
      <trkpt lat="43.49868" lon="2.31143">
        <ele>311.80352311861</ele>
        <time>2020-01-14T14:03:28Z</time>
      </trkpt>
      <trkpt lat="43.49867" lon="2.31155">
        <ele>312.26028916053</ele>
        <time>2020-01-14T14:03:37Z</time>
      </trkpt>
      <trkpt lat="43.49867" lon="2.31166">
        <ele>311.82567197364</ele>
        <time>2020-01-14T14:03:45Z</time>
      </trkpt>
      <trkpt lat="43.49865" lon="2.31177">
        <ele>312.46629634779</ele>
        <time>2020-01-14T14:03:51Z</time>
      </trkpt>
      <trkpt lat="43.49859" lon="2.31185">
        <ele>315.65942850523</ele>
        <time>2020-01-14T14:04:00Z</time>
      </trkpt>
      <trkpt lat="43.49852" lon="2.31192">
        <ele>317.72282186244</ele>
        <time>2020-01-14T14:04:09Z</time>
      </trkpt>
      <trkpt lat="43.49845" lon="2.31199">
        <ele>317.85391579196</ele>
        <time>2020-01-14T14:04:17Z</time>
      </trkpt>
      <trkpt lat="43.4984" lon="2.31206">
        <ele>319.06379177328</ele>
        <time>2020-01-14T14:04:24Z</time>
      </trkpt>
      <trkpt lat="43.49833" lon="2.31214">
        <ele>320.32256815489</ele>
        <time>2020-01-14T14:04:33Z</time>
      </trkpt>
      <trkpt lat="43.49827" lon="2.31221">
        <ele>320.81447308324</ele>
        <time>2020-01-14T14:04:43Z</time>
      </trkpt>
      <trkpt lat="43.4982" lon="2.31229">
        <ele>321.70813510288</ele>
        <time>2020-01-14T14:04:52Z</time>
      </trkpt>
      <trkpt lat="43.49813" lon="2.31236">
        <ele>321.01160159335</ele>
        <time>2020-01-14T14:05:01Z</time>
      </trkpt>
      <trkpt lat="43.49806" lon="2.31242">
        <ele>321.00445923116</ele>
        <time>2020-01-14T14:05:08Z</time>
      </trkpt>
      <trkpt lat="43.498" lon="2.3125">
        <ele>320.89720562752</ele>
        <time>2020-01-14T14:05:17Z</time>
      </trkpt>
      <trkpt lat="43.49793" lon="2.31257">
        <ele>321.65551225841</ele>
        <time>2020-01-14T14:05:25Z</time>
      </trkpt>
      <trkpt lat="43.49786" lon="2.31264">
        <ele>323.36558933835</ele>
        <time>2020-01-14T14:05:33Z</time>
      </trkpt>
      <trkpt lat="43.49781" lon="2.31271">
        <ele>324.43822814059</ele>
        <time>2020-01-14T14:05:40Z</time>
      </trkpt>
      <trkpt lat="43.49773" lon="2.31277">
        <ele>326.7031231327</ele>
        <time>2020-01-14T14:05:48Z</time>
      </trkpt>
      <trkpt lat="43.49767" lon="2.31284">
        <ele>331.05087202974</ele>
        <time>2020-01-14T14:05:56Z</time>
      </trkpt>
      <trkpt lat="43.49761" lon="2.31292">
        <ele>332.26983880624</ele>
        <time>2020-01-14T14:06:06Z</time>
      </trkpt>
      <trkpt lat="43.49753" lon="2.31297">
        <ele>331.29457902256</ele>
        <time>2020-01-14T14:06:13Z</time>
      </trkpt>
      <trkpt lat="43.49744" lon="2.313">
        <ele>333.18191909511</ele>
        <time>2020-01-14T14:06:24Z</time>
      </trkpt>
      <trkpt lat="43.49737" lon="2.31305">
        <ele>335.01705677062</ele>
        <time>2020-01-14T14:07:34Z</time>
      </trkpt>
      <trkpt lat="43.49733" lon="2.31315">
        <ele>334.53749687504</ele>
        <time>2020-01-14T14:07:42Z</time>
      </trkpt>
      <trkpt lat="43.4973" lon="2.31326">
        <ele>333.57012708951</ele>
        <time>2020-01-14T14:07:48Z</time>
      </trkpt>
      <trkpt lat="43.49724" lon="2.31334">
        <ele>334.21676902939</ele>
        <time>2020-01-14T14:07:54Z</time>
      </trkpt>
      <trkpt lat="43.49718" lon="2.31343">
        <ele>334.35590028018</ele>
        <time>2020-01-14T14:08:02Z</time>
      </trkpt>
      <trkpt lat="43.49711" lon="2.31351">
        <ele>335.1890348345</ele>
        <time>2020-01-14T14:08:11Z</time>
      </trkpt>
      <trkpt lat="43.49705" lon="2.31359">
        <ele>336.85025647748</ele>
        <time>2020-01-14T14:08:19Z</time>
      </trkpt>
      <trkpt lat="43.49699" lon="2.31368">
        <ele>336.08238537796</ele>
        <time>2020-01-14T14:08:28Z</time>
      </trkpt>
      <trkpt lat="43.49693" lon="2.31375">
        <ele>336.89063423779</ele>
        <time>2020-01-14T14:08:35Z</time>
      </trkpt>
      <trkpt lat="43.49685" lon="2.31381">
        <ele>338.43340593949</ele>
        <time>2020-01-14T14:08:44Z</time>
      </trkpt>
      <trkpt lat="43.4968" lon="2.31389">
        <ele>338.48698389996</ele>
        <time>2020-01-14T14:08:50Z</time>
      </trkpt>
      <trkpt lat="43.49673" lon="2.31397">
        <ele>338.53743889183</ele>
        <time>2020-01-14T14:08:56Z</time>
      </trkpt>
      <trkpt lat="43.49666" lon="2.31404">
        <ele>338.47167558689</ele>
        <time>2020-01-14T14:09:04Z</time>
      </trkpt>
      <trkpt lat="43.49659" lon="2.31411">
        <ele>339.35858631786</ele>
        <time>2020-01-14T14:09:12Z</time>
      </trkpt>
      <trkpt lat="43.49655" lon="2.3142">
        <ele>339.78707162291</ele>
        <time>2020-01-14T14:09:19Z</time>
      </trkpt>
      <trkpt lat="43.49649" lon="2.31428">
        <ele>340.08370048739</ele>
        <time>2020-01-14T14:09:27Z</time>
      </trkpt>
      <trkpt lat="43.49643" lon="2.31436">
        <ele>341.25977866538</ele>
        <time>2020-01-14T14:09:33Z</time>
      </trkpt>
      <trkpt lat="43.49637" lon="2.31444">
        <ele>340.15888548549</ele>
        <time>2020-01-14T14:09:41Z</time>
      </trkpt>
      <trkpt lat="43.49632" lon="2.31453">
        <ele>338.20103795826</ele>
        <time>2020-01-14T14:09:50Z</time>
      </trkpt>
      <trkpt lat="43.49627" lon="2.31461">
        <ele>337.74036133476</ele>
        <time>2020-01-14T14:09:56Z</time>
      </trkpt>
      <trkpt lat="43.49621" lon="2.3147">
        <ele>337.94457529578</ele>
        <time>2020-01-14T14:10:04Z</time>
      </trkpt>
      <trkpt lat="43.49615" lon="2.31479">
        <ele>340.14710017666</ele>
        <time>2020-01-14T14:10:14Z</time>
      </trkpt>
      <trkpt lat="43.4961" lon="2.31487">
        <ele>340.35878492985</ele>
        <time>2020-01-14T14:10:22Z</time>
      </trkpt>
      <trkpt lat="43.49603" lon="2.31495">
        <ele>340.49104382098</ele>
        <time>2020-01-14T14:10:27Z</time>
      </trkpt>
      <trkpt lat="43.49598" lon="2.31503">
        <ele>340.4161706036</ele>
        <time>2020-01-14T14:10:33Z</time>
      </trkpt>
      <trkpt lat="43.49593" lon="2.31512">
        <ele>340.09561191034</ele>
        <time>2020-01-14T14:10:38Z</time>
      </trkpt>
      <trkpt lat="43.49587" lon="2.31522">
        <ele>341.03058145475</ele>
        <time>2020-01-14T14:10:45Z</time>
      </trkpt>
      <trkpt lat="43.49581" lon="2.3153">
        <ele>341.20152509585</ele>
        <time>2020-01-14T14:10:56Z</time>
      </trkpt>
      <trkpt lat="43.49575" lon="2.31539">
        <ele>341.79980044626</ele>
        <time>2020-01-14T14:11:06Z</time>
      </trkpt>
      <trkpt lat="43.49567" lon="2.31543">
        <ele>341.30788114201</ele>
        <time>2020-01-14T14:11:31Z</time>
      </trkpt>
      <trkpt lat="43.4956" lon="2.3155">
        <ele>341.65335701313</ele>
        <time>2020-01-14T14:11:39Z</time>
      </trkpt>
      <trkpt lat="43.49554" lon="2.31557">
        <ele>341.39193003625</ele>
        <time>2020-01-14T14:11:47Z</time>
      </trkpt>
      <trkpt lat="43.49547" lon="2.31562">
        <ele>341.61402088497</ele>
        <time>2020-01-14T14:11:54Z</time>
      </trkpt>
      <trkpt lat="43.49542" lon="2.31571">
        <ele>341.66215561144</ele>
        <time>2020-01-14T14:12:02Z</time>
      </trkpt>
      <trkpt lat="43.49534" lon="2.31576">
        <ele>340.67169534136</ele>
        <time>2020-01-14T14:12:11Z</time>
      </trkpt>
      <trkpt lat="43.49527" lon="2.31582">
        <ele>340.33688347787</ele>
        <time>2020-01-14T14:12:18Z</time>
      </trkpt>
      <trkpt lat="43.4952" lon="2.31588">
        <ele>338.84916825499</ele>
        <time>2020-01-14T14:12:26Z</time>
      </trkpt>
      <trkpt lat="43.49513" lon="2.31594">
        <ele>337.01024455018</ele>
        <time>2020-01-14T14:12:33Z</time>
      </trkpt>
      <trkpt lat="43.49505" lon="2.31598">
        <ele>336.98037748877</ele>
        <time>2020-01-14T14:12:40Z</time>
      </trkpt>
      <trkpt lat="43.49497" lon="2.31602">
        <ele>335.56189864222</ele>
        <time>2020-01-14T14:12:51Z</time>
      </trkpt>
      <trkpt lat="43.49489" lon="2.31605">
        <ele>336.04279489722</ele>
        <time>2020-01-14T14:12:59Z</time>
      </trkpt>
      <trkpt lat="43.49482" lon="2.31611">
        <ele>336.1205816986</ele>
        <time>2020-01-14T14:13:05Z</time>
      </trkpt>
      <trkpt lat="43.49475" lon="2.31613">
        <ele>336.54015166312</ele>
        <time>2020-01-14T14:13:11Z</time>
      </trkpt>
      <trkpt lat="43.49467" lon="2.31618">
        <ele>337.60854617599</ele>
        <time>2020-01-14T14:13:17Z</time>
      </trkpt>
      <trkpt lat="43.49459" lon="2.31622">
        <ele>339.38291150983</ele>
        <time>2020-01-14T14:13:27Z</time>
      </trkpt>
      <trkpt lat="43.49451" lon="2.31629">
        <ele>341.53537390195</ele>
        <time>2020-01-14T14:13:39Z</time>
      </trkpt>
      <trkpt lat="43.49446" lon="2.31636">
        <ele>340.05059012398</ele>
        <time>2020-01-14T14:13:44Z</time>
      </trkpt>
      <trkpt lat="43.49443" lon="2.31648">
        <ele>336.03887775075</ele>
        <time>2020-01-14T14:13:54Z</time>
      </trkpt>
      <trkpt lat="43.49441" lon="2.3166">
        <ele>338.50282917358</ele>
        <time>2020-01-14T14:14:06Z</time>
      </trkpt>
      <trkpt lat="43.49434" lon="2.31667">
        <ele>340.5915738875</ele>
        <time>2020-01-14T14:14:13Z</time>
      </trkpt>
      <trkpt lat="43.49429" lon="2.31676">
        <ele>343.03520338237</ele>
        <time>2020-01-14T14:14:20Z</time>
      </trkpt>
      <trkpt lat="43.49421" lon="2.31683">
        <ele>342.87085585669</ele>
        <time>2020-01-14T14:14:25Z</time>
      </trkpt>
      <trkpt lat="43.49416" lon="2.31691">
        <ele>342.62214898132</ele>
        <time>2020-01-14T14:14:30Z</time>
      </trkpt>
      <trkpt lat="43.49409" lon="2.31696">
        <ele>342.90163870342</ele>
        <time>2020-01-14T14:14:35Z</time>
      </trkpt>
      <trkpt lat="43.49405" lon="2.31706">
        <ele>343.89153279271</ele>
        <time>2020-01-14T14:14:43Z</time>
      </trkpt>
      <trkpt lat="43.49401" lon="2.31715">
        <ele>342.10284246784</ele>
        <time>2020-01-14T14:14:51Z</time>
      </trkpt>
      <trkpt lat="43.49395" lon="2.31724">
        <ele>340.25193209015</ele>
        <time>2020-01-14T14:15:01Z</time>
      </trkpt>
      <trkpt lat="43.49391" lon="2.31734">
        <ele>340.67287312914</ele>
        <time>2020-01-14T14:15:08Z</time>
      </trkpt>
      <trkpt lat="43.4938" lon="2.3174">
        <ele>338.47954159882</ele>
        <time>2020-01-14T14:15:13Z</time>
      </trkpt>
      <trkpt lat="43.49381" lon="2.31752">
        <ele>336.63543016184</ele>
        <time>2020-01-14T14:15:21Z</time>
      </trkpt>
      <trkpt lat="43.49387" lon="2.3176">
        <ele>337.21422457509</ele>
        <time>2020-01-14T14:15:28Z</time>
      </trkpt>
      <trkpt lat="43.49394" lon="2.31767">
        <ele>339.94737230614</ele>
        <time>2020-01-14T14:15:35Z</time>
      </trkpt>
      <trkpt lat="43.49399" lon="2.31776">
        <ele>340.03075530007</ele>
        <time>2020-01-14T14:15:41Z</time>
      </trkpt>
      <trkpt lat="43.49402" lon="2.31787">
        <ele>341.33954949304</ele>
        <time>2020-01-14T14:15:48Z</time>
      </trkpt>
      <trkpt lat="43.49403" lon="2.31798">
        <ele>342.4249243699</ele>
        <time>2020-01-14T14:15:55Z</time>
      </trkpt>
      <trkpt lat="43.49403" lon="2.3181">
        <ele>340.90041492507</ele>
        <time>2020-01-14T14:16:05Z</time>
      </trkpt>
      <trkpt lat="43.49401" lon="2.31821">
        <ele>340.4547396889</ele>
        <time>2020-01-14T14:16:12Z</time>
      </trkpt>
      <trkpt lat="43.49402" lon="2.31833">
        <ele>340.2644920703</ele>
        <time>2020-01-14T14:16:20Z</time>
      </trkpt>
      <trkpt lat="43.49405" lon="2.31844">
        <ele>339.77474664804</ele>
        <time>2020-01-14T14:16:26Z</time>
      </trkpt>
      <trkpt lat="43.49412" lon="2.31851">
        <ele>338.57009655517</ele>
        <time>2020-01-14T14:16:33Z</time>
      </trkpt>
      <trkpt lat="43.49415" lon="2.31863">
        <ele>337.0604473073</ele>
        <time>2020-01-14T14:16:43Z</time>
      </trkpt>
      <trkpt lat="43.4942" lon="2.31872">
        <ele>335.1514335582</ele>
        <time>2020-01-14T14:16:51Z</time>
      </trkpt>
      <trkpt lat="43.49425" lon="2.31882">
        <ele>334.54516268615</ele>
        <time>2020-01-14T14:16:59Z</time>
      </trkpt>
      <trkpt lat="43.49429" lon="2.31892">
        <ele>330.78761584032</ele>
        <time>2020-01-14T14:17:07Z</time>
      </trkpt>
      <trkpt lat="43.49434" lon="2.31902">
        <ele>330.77372239623</ele>
        <time>2020-01-14T14:17:14Z</time>
      </trkpt>
      <trkpt lat="43.49442" lon="2.31907">
        <ele>330.11894918326</ele>
        <time>2020-01-14T14:17:21Z</time>
      </trkpt>
      <trkpt lat="43.49449" lon="2.31912">
        <ele>331.07310761139</ele>
        <time>2020-01-14T14:17:28Z</time>
      </trkpt>
      <trkpt lat="43.49456" lon="2.31918">
        <ele>332.49729541503</ele>
        <time>2020-01-14T14:17:34Z</time>
      </trkpt>
      <trkpt lat="43.49463" lon="2.31924">
        <ele>330.55119317956</ele>
        <time>2020-01-14T14:17:41Z</time>
      </trkpt>
      <trkpt lat="43.4947" lon="2.31929">
        <ele>329.77466433775</ele>
        <time>2020-01-14T14:17:49Z</time>
      </trkpt>
      <trkpt lat="43.49477" lon="2.31936">
        <ele>329.81762715429</ele>
        <time>2020-01-14T14:17:58Z</time>
      </trkpt>
      <trkpt lat="43.49484" lon="2.31945">
        <ele>329.77642383985</ele>
        <time>2020-01-14T14:18:05Z</time>
      </trkpt>
      <trkpt lat="43.49487" lon="2.31956">
        <ele>330.64898988511</ele>
        <time>2020-01-14T14:18:13Z</time>
      </trkpt>
      <trkpt lat="43.49489" lon="2.31968">
        <ele>331.68320306111</ele>
        <time>2020-01-14T14:18:20Z</time>
      </trkpt>
      <trkpt lat="43.4949" lon="2.31979">
        <ele>332.08232163265</ele>
        <time>2020-01-14T14:18:27Z</time>
      </trkpt>
      <trkpt lat="43.4949" lon="2.31991">
        <ele>333.49810594972</ele>
        <time>2020-01-14T14:18:34Z</time>
      </trkpt>
      <trkpt lat="43.4949" lon="2.32003">
        <ele>336.2377043739</ele>
        <time>2020-01-14T14:18:42Z</time>
      </trkpt>
      <trkpt lat="43.49489" lon="2.32014">
        <ele>337.51414519828</ele>
        <time>2020-01-14T14:18:49Z</time>
      </trkpt>
      <trkpt lat="43.49488" lon="2.32026">
        <ele>341.00525315199</ele>
        <time>2020-01-14T14:18:57Z</time>
      </trkpt>
      <trkpt lat="43.49486" lon="2.32038">
        <ele>340.7843290465</ele>
        <time>2020-01-14T14:19:04Z</time>
      </trkpt>
      <trkpt lat="43.49484" lon="2.3205">
        <ele>340.9566159863</ele>
        <time>2020-01-14T14:19:13Z</time>
      </trkpt>
      <trkpt lat="43.49484" lon="2.32061">
        <ele>341.24652526621</ele>
        <time>2020-01-14T14:19:20Z</time>
      </trkpt>
      <trkpt lat="43.49485" lon="2.32073">
        <ele>341.37782626133</ele>
        <time>2020-01-14T14:19:29Z</time>
      </trkpt>
      <trkpt lat="43.49483" lon="2.32085">
        <ele>341.6242727479</ele>
        <time>2020-01-14T14:19:37Z</time>
      </trkpt>
      <trkpt lat="43.49484" lon="2.32097">
        <ele>341.60829603206</ele>
        <time>2020-01-14T14:19:45Z</time>
      </trkpt>
      <trkpt lat="43.49484" lon="2.32109">
        <ele>342.17146746069</ele>
        <time>2020-01-14T14:19:53Z</time>
      </trkpt>
      <trkpt lat="43.49482" lon="2.32121">
        <ele>342.45813679695</ele>
        <time>2020-01-14T14:19:59Z</time>
      </trkpt>
      <trkpt lat="43.4948" lon="2.32132">
        <ele>343.26952545904</ele>
        <time>2020-01-14T14:20:06Z</time>
      </trkpt>
      <trkpt lat="43.49478" lon="2.32144">
        <ele>342.49646562431</ele>
        <time>2020-01-14T14:20:14Z</time>
      </trkpt>
      <trkpt lat="43.49474" lon="2.32154">
        <ele>341.20990920439</ele>
        <time>2020-01-14T14:20:22Z</time>
      </trkpt>
      <trkpt lat="43.49471" lon="2.32165">
        <ele>340.92348798178</ele>
        <time>2020-01-14T14:20:31Z</time>
      </trkpt>
      <trkpt lat="43.49467" lon="2.32175">
        <ele>344.04507032502</ele>
        <time>2020-01-14T14:20:40Z</time>
      </trkpt>
      <trkpt lat="43.4946" lon="2.32182">
        <ele>347.01577412896</ele>
        <time>2020-01-14T14:20:48Z</time>
      </trkpt>
      <trkpt lat="43.49453" lon="2.3219">
        <ele>347.4683647342</ele>
        <time>2020-01-14T14:20:57Z</time>
      </trkpt>
      <trkpt lat="43.49447" lon="2.32198">
        <ele>347.40324352589</ele>
        <time>2020-01-14T14:21:05Z</time>
      </trkpt>
      <trkpt lat="43.49442" lon="2.32207">
        <ele>347.87913217489</ele>
        <time>2020-01-14T14:21:13Z</time>
      </trkpt>
      <trkpt lat="43.49434" lon="2.32212">
        <ele>347.43826199695</ele>
        <time>2020-01-14T14:21:21Z</time>
      </trkpt>
      <trkpt lat="43.49427" lon="2.32215">
        <ele>343.63607254624</ele>
        <time>2020-01-14T14:21:26Z</time>
      </trkpt>
      <trkpt lat="43.49418" lon="2.32215">
        <ele>342.08922804054</ele>
        <time>2020-01-14T14:21:35Z</time>
      </trkpt>
      <trkpt lat="43.4941" lon="2.32214">
        <ele>343.99122035224</ele>
        <time>2020-01-14T14:21:46Z</time>
      </trkpt>
      <trkpt lat="43.49402" lon="2.32218">
        <ele>343.36012986396</ele>
        <time>2020-01-14T14:21:52Z</time>
      </trkpt>
      <trkpt lat="43.49394" lon="2.32223">
        <ele>343.2544962056</ele>
        <time>2020-01-14T14:21:57Z</time>
      </trkpt>
      <trkpt lat="43.49389" lon="2.32233">
        <ele>343.29500188958</ele>
        <time>2020-01-14T14:22:04Z</time>
      </trkpt>
      <trkpt lat="43.49387" lon="2.32244">
        <ele>343.64093456324</ele>
        <time>2020-01-14T14:22:12Z</time>
      </trkpt>
      <trkpt lat="43.49386" lon="2.32255">
        <ele>342.87320591509</ele>
        <time>2020-01-14T14:22:19Z</time>
      </trkpt>
      <trkpt lat="43.49385" lon="2.32266">
        <ele>341.77824931219</ele>
        <time>2020-01-14T14:22:26Z</time>
      </trkpt>
      <trkpt lat="43.49384" lon="2.32276">
        <ele>341.10153257754</ele>
        <time>2020-01-14T14:22:33Z</time>
      </trkpt>
      <trkpt lat="43.49382" lon="2.32287">
        <ele>340.93541449215</ele>
        <time>2020-01-14T14:22:39Z</time>
      </trkpt>
      <trkpt lat="43.4938" lon="2.32297">
        <ele>342.49690309074</ele>
        <time>2020-01-14T14:22:45Z</time>
      </trkpt>
      <trkpt lat="43.49377" lon="2.32309">
        <ele>345.52015146427</ele>
        <time>2020-01-14T14:22:55Z</time>
      </trkpt>
      <trkpt lat="43.49371" lon="2.32316">
        <ele>346.25732375868</ele>
        <time>2020-01-14T14:23:02Z</time>
      </trkpt>
      <trkpt lat="43.49365" lon="2.32325">
        <ele>344.74994247314</ele>
        <time>2020-01-14T14:23:09Z</time>
      </trkpt>
      <trkpt lat="43.4936" lon="2.32333">
        <ele>345.58864411991</ele>
        <time>2020-01-14T14:23:15Z</time>
      </trkpt>
      <trkpt lat="43.4936" lon="2.32345">
        <ele>345.97902387939</ele>
        <time>2020-01-14T14:23:22Z</time>
      </trkpt>
      <trkpt lat="43.49356" lon="2.32356">
        <ele>344.19733593613</ele>
        <time>2020-01-14T14:23:30Z</time>
      </trkpt>
      <trkpt lat="43.49354" lon="2.32367">
        <ele>343.59206443932</ele>
        <time>2020-01-14T14:23:37Z</time>
      </trkpt>
      <trkpt lat="43.49352" lon="2.32379">
        <ele>342.76221364737</ele>
        <time>2020-01-14T14:23:45Z</time>
      </trkpt>
      <trkpt lat="43.49349" lon="2.3239">
        <ele>342.55292846262</ele>
        <time>2020-01-14T14:23:52Z</time>
      </trkpt>
      <trkpt lat="43.49345" lon="2.32401">
        <ele>340.83129266463</ele>
        <time>2020-01-14T14:23:59Z</time>
      </trkpt>
      <trkpt lat="43.49343" lon="2.32412">
        <ele>340.43555470183</ele>
        <time>2020-01-14T14:24:07Z</time>
      </trkpt>
      <trkpt lat="43.4934" lon="2.32423">
        <ele>341.81458722334</ele>
        <time>2020-01-14T14:24:15Z</time>
      </trkpt>
      <trkpt lat="43.49338" lon="2.32434">
        <ele>342.22227220051</ele>
        <time>2020-01-14T14:24:23Z</time>
      </trkpt>
      <trkpt lat="43.49337" lon="2.32446">
        <ele>341.93217330985</ele>
        <time>2020-01-14T14:24:30Z</time>
      </trkpt>
      <trkpt lat="43.49333" lon="2.32454">
        <ele>341.05908648577</ele>
        <time>2020-01-14T14:24:36Z</time>
      </trkpt>
      <trkpt lat="43.49329" lon="2.32464">
        <ele>341.20068076439</ele>
        <time>2020-01-14T14:24:44Z</time>
      </trkpt>
      <trkpt lat="43.49326" lon="2.32475">
        <ele>339.8065674156</ele>
        <time>2020-01-14T14:24:52Z</time>
      </trkpt>
      <trkpt lat="43.49322" lon="2.32485">
        <ele>339.59284685366</ele>
        <time>2020-01-14T14:24:59Z</time>
      </trkpt>
      <trkpt lat="43.49318" lon="2.32494">
        <ele>340.73901223019</ele>
        <time>2020-01-14T14:25:06Z</time>
      </trkpt>
      <trkpt lat="43.49313" lon="2.32504">
        <ele>339.59078310523</ele>
        <time>2020-01-14T14:25:15Z</time>
      </trkpt>
      <trkpt lat="43.49307" lon="2.32512">
        <ele>338.78082268033</ele>
        <time>2020-01-14T14:25:22Z</time>
      </trkpt>
      <trkpt lat="43.49303" lon="2.32522">
        <ele>338.70687781181</ele>
        <time>2020-01-14T14:25:29Z</time>
      </trkpt>
      <trkpt lat="43.49298" lon="2.32531">
        <ele>337.60560863744</ele>
        <time>2020-01-14T14:25:35Z</time>
      </trkpt>
      <trkpt lat="43.49297" lon="2.32542">
        <ele>335.99451349769</ele>
        <time>2020-01-14T14:25:43Z</time>
      </trkpt>
      <trkpt lat="43.49293" lon="2.32553">
        <ele>334.80328750424</ele>
        <time>2020-01-14T14:25:51Z</time>
      </trkpt>
      <trkpt lat="43.4929" lon="2.32564">
        <ele>334.41119864956</ele>
        <time>2020-01-14T14:25:59Z</time>
      </trkpt>
      <trkpt lat="43.49291" lon="2.32576">
        <ele>334.12648633216</ele>
        <time>2020-01-14T14:26:07Z</time>
      </trkpt>
      <trkpt lat="43.49294" lon="2.32587">
        <ele>332.5570959961</ele>
        <time>2020-01-14T14:26:14Z</time>
      </trkpt>
      <trkpt lat="43.49295" lon="2.32597">
        <ele>332.10986366682</ele>
        <time>2020-01-14T14:26:19Z</time>
      </trkpt>
      <trkpt lat="43.49295" lon="2.32609">
        <ele>332.01520437095</ele>
        <time>2020-01-14T14:26:26Z</time>
      </trkpt>
      <trkpt lat="43.49292" lon="2.32619">
        <ele>331.04380007647</ele>
        <time>2020-01-14T14:26:32Z</time>
      </trkpt>
      <trkpt lat="43.49291" lon="2.32631">
        <ele>332.36777103972</ele>
        <time>2020-01-14T14:26:39Z</time>
      </trkpt>
      <trkpt lat="43.49292" lon="2.32641">
        <ele>334.18266694807</ele>
        <time>2020-01-14T14:26:45Z</time>
      </trkpt>
      <trkpt lat="43.49293" lon="2.32653">
        <ele>336.13741699234</ele>
        <time>2020-01-14T14:26:51Z</time>
      </trkpt>
      <trkpt lat="43.49289" lon="2.32663">
        <ele>336.88950992748</ele>
        <time>2020-01-14T14:26:59Z</time>
      </trkpt>
      <trkpt lat="43.49285" lon="2.32674">
        <ele>334.66601212323</ele>
        <time>2020-01-14T14:27:09Z</time>
      </trkpt>
      <trkpt lat="43.49281" lon="2.32683">
        <ele>334.93869121</ele>
        <time>2020-01-14T14:27:16Z</time>
      </trkpt>
      <trkpt lat="43.49277" lon="2.32693">
        <ele>334.61648382898</ele>
        <time>2020-01-14T14:27:22Z</time>
      </trkpt>
      <trkpt lat="43.49276" lon="2.32705">
        <ele>335.51327198744</ele>
        <time>2020-01-14T14:27:29Z</time>
      </trkpt>
      <trkpt lat="43.49275" lon="2.32717">
        <ele>334.73760568816</ele>
        <time>2020-01-14T14:27:38Z</time>
      </trkpt>
      <trkpt lat="43.49271" lon="2.32728">
        <ele>333.95236206986</ele>
        <time>2020-01-14T14:27:45Z</time>
      </trkpt>
      <trkpt lat="43.49265" lon="2.32737">
        <ele>331.87356721796</ele>
        <time>2020-01-14T14:27:54Z</time>
      </trkpt>
      <trkpt lat="43.49261" lon="2.32746">
        <ele>332.20698883478</ele>
        <time>2020-01-14T14:28:01Z</time>
      </trkpt>
      <trkpt lat="43.49255" lon="2.32755">
        <ele>332.20684096031</ele>
        <time>2020-01-14T14:28:10Z</time>
      </trkpt>
      <trkpt lat="43.49251" lon="2.32765">
        <ele>330.96437578369</ele>
        <time>2020-01-14T14:28:19Z</time>
      </trkpt>
      <trkpt lat="43.49245" lon="2.32775">
        <ele>330.90521709435</ele>
        <time>2020-01-14T14:28:28Z</time>
      </trkpt>
      <trkpt lat="43.49238" lon="2.3278">
        <ele>332.13315300178</ele>
        <time>2020-01-14T14:28:35Z</time>
      </trkpt>
      <trkpt lat="43.49231" lon="2.32787">
        <ele>330.9619615525</ele>
        <time>2020-01-14T14:28:43Z</time>
      </trkpt>
      <trkpt lat="43.49224" lon="2.32792">
        <ele>330.91222517937</ele>
        <time>2020-01-14T14:28:49Z</time>
      </trkpt>
      <trkpt lat="43.49216" lon="2.32795">
        <ele>330.30262209941</ele>
        <time>2020-01-14T14:28:56Z</time>
      </trkpt>
      <trkpt lat="43.49208" lon="2.32799">
        <ele>329.54199475981</ele>
        <time>2020-01-14T14:29:04Z</time>
      </trkpt>
      <trkpt lat="43.49199" lon="2.32802">
        <ele>331.99491529632</ele>
        <time>2020-01-14T14:29:12Z</time>
      </trkpt>
      <trkpt lat="43.49192" lon="2.32805">
        <ele>332.72983846255</ele>
        <time>2020-01-14T14:29:19Z</time>
      </trkpt>
      <trkpt lat="43.49184" lon="2.3281">
        <ele>334.75858695526</ele>
        <time>2020-01-14T14:29:27Z</time>
      </trkpt>
      <trkpt lat="43.49176" lon="2.32813">
        <ele>335.0617215652</ele>
        <time>2020-01-14T14:29:34Z</time>
      </trkpt>
      <trkpt lat="43.49168" lon="2.32818">
        <ele>335.96589128394</ele>
        <time>2020-01-14T14:29:40Z</time>
      </trkpt>
      <trkpt lat="43.49161" lon="2.32824">
        <ele>339.07847978268</ele>
        <time>2020-01-14T14:29:49Z</time>
      </trkpt>
      <trkpt lat="43.49154" lon="2.32829">
        <ele>343.81792631373</ele>
        <time>2020-01-14T14:29:56Z</time>
      </trkpt>
      <trkpt lat="43.49147" lon="2.32835">
        <ele>344.65159319993</ele>
        <time>2020-01-14T14:30:03Z</time>
      </trkpt>
      <trkpt lat="43.4914" lon="2.32838">
        <ele>340.05678487383</ele>
        <time>2020-01-14T14:30:10Z</time>
      </trkpt>
      <trkpt lat="43.49133" lon="2.32843">
        <ele>337.4426481612</ele>
        <time>2020-01-14T14:30:15Z</time>
      </trkpt>
      <trkpt lat="43.49126" lon="2.3285">
        <ele>336.50611514598</ele>
        <time>2020-01-14T14:30:21Z</time>
      </trkpt>
      <trkpt lat="43.49119" lon="2.32857">
        <ele>335.45798047353</ele>
        <time>2020-01-14T14:30:30Z</time>
      </trkpt>
      <trkpt lat="43.49113" lon="2.32864">
        <ele>336.00463265181</ele>
        <time>2020-01-14T14:30:38Z</time>
      </trkpt>
      <trkpt lat="43.49105" lon="2.3287">
        <ele>334.4136657631</ele>
        <time>2020-01-14T14:30:45Z</time>
      </trkpt>
      <trkpt lat="43.49098" lon="2.32878">
        <ele>336.68623173609</ele>
        <time>2020-01-14T14:30:52Z</time>
      </trkpt>
      <trkpt lat="43.49092" lon="2.32885">
        <ele>337.00253931899</ele>
        <time>2020-01-14T14:31:02Z</time>
      </trkpt>
      <trkpt lat="43.49086" lon="2.32892">
        <ele>337.76905498467</ele>
        <time>2020-01-14T14:31:17Z</time>
      </trkpt>
      <trkpt lat="43.49079" lon="2.32897">
        <ele>338.57397014927</ele>
        <time>2020-01-14T14:31:27Z</time>
      </trkpt>
      <trkpt lat="43.49072" lon="2.32905">
        <ele>339.013642231</ele>
        <time>2020-01-14T14:31:32Z</time>
      </trkpt>
      <trkpt lat="43.49063" lon="2.32909">
        <ele>338.34121608082</ele>
        <time>2020-01-14T14:31:36Z</time>
      </trkpt>
      <trkpt lat="43.49055" lon="2.32912">
        <ele>338.33093704842</ele>
        <time>2020-01-14T14:31:41Z</time>
      </trkpt>
      <trkpt lat="43.49047" lon="2.32915">
        <ele>337.47519115638</ele>
        <time>2020-01-14T14:31:52Z</time>
      </trkpt>
      <trkpt lat="43.49039" lon="2.32919">
        <ele>336.64837518334</ele>
        <time>2020-01-14T14:31:57Z</time>
      </trkpt>
      <trkpt lat="43.49031" lon="2.32924">
        <ele>336.25042785984</ele>
        <time>2020-01-14T14:32:02Z</time>
      </trkpt>
      <trkpt lat="43.49024" lon="2.3293">
        <ele>335.97904698644</ele>
        <time>2020-01-14T14:32:07Z</time>
      </trkpt>
      <trkpt lat="43.49016" lon="2.32932">
        <ele>335.59012530092</ele>
        <time>2020-01-14T14:32:13Z</time>
      </trkpt>
      <trkpt lat="43.49008" lon="2.32937">
        <ele>336.89576187637</ele>
        <time>2020-01-14T14:32:20Z</time>
      </trkpt>
      <trkpt lat="43.49" lon="2.32938">
        <ele>339.53382365406</ele>
        <time>2020-01-14T14:32:31Z</time>
      </trkpt>
      <trkpt lat="43.48992" lon="2.32942">
        <ele>343.21710845176</ele>
        <time>2020-01-14T14:32:47Z</time>
      </trkpt>
      <trkpt lat="43.48993" lon="2.32953">
        <ele>349.23322337493</ele>
        <time>2020-01-14T14:35:48Z</time>
      </trkpt>
      <trkpt lat="43.48999" lon="2.32962">
        <ele>349.40286492743</ele>
        <time>2020-01-14T14:35:59Z</time>
      </trkpt>
      <trkpt lat="43.49005" lon="2.32969">
        <ele>347.73221902549</ele>
        <time>2020-01-14T14:36:19Z</time>
      </trkpt>
      <trkpt lat="43.49013" lon="2.32978">
        <ele>348.23525110073</ele>
        <time>2020-01-14T14:36:24Z</time>
      </trkpt>
      <trkpt lat="43.49023" lon="2.32984">
        <ele>349.11251456756</ele>
        <time>2020-01-14T14:36:29Z</time>
      </trkpt>
      <trkpt lat="43.4903" lon="2.32988">
        <ele>348.04235936422</ele>
        <time>2020-01-14T14:36:41Z</time>
      </trkpt>
      <trkpt lat="43.49038" lon="2.32993">
        <ele>348.97939767782</ele>
        <time>2020-01-14T14:36:47Z</time>
      </trkpt>
      <trkpt lat="43.49046" lon="2.32996">
        <ele>349.80589895509</ele>
        <time>2020-01-14T14:36:57Z</time>
      </trkpt>
      <trkpt lat="43.49054" lon="2.33">
        <ele>349.34010837972</ele>
        <time>2020-01-14T14:37:13Z</time>
      </trkpt>
      <trkpt lat="43.49061" lon="2.33006">
        <ele>348.79341765959</ele>
        <time>2020-01-14T14:37:19Z</time>
      </trkpt>
      <trkpt lat="43.49067" lon="2.33013">
        <ele>349.33080223948</ele>
        <time>2020-01-14T14:37:31Z</time>
      </trkpt>
      <trkpt lat="43.49072" lon="2.33022">
        <ele>349.27743885107</ele>
        <time>2020-01-14T14:37:43Z</time>
      </trkpt>
      <trkpt lat="43.49077" lon="2.3303">
        <ele>349.22074476816</ele>
        <time>2020-01-14T14:37:55Z</time>
      </trkpt>
      <trkpt lat="43.4908" lon="2.33038">
        <ele>348.06644768361</ele>
        <time>2020-01-14T14:38:05Z</time>
      </trkpt>
      <trkpt lat="43.49086" lon="2.33048">
        <ele>347.88276602048</ele>
        <time>2020-01-14T14:38:09Z</time>
      </trkpt>
      <trkpt lat="43.49093" lon="2.33058">
        <ele>348.18395432923</ele>
        <time>2020-01-14T14:38:13Z</time>
      </trkpt>
      <trkpt lat="43.49098" lon="2.33067">
        <ele>347.94374180399</ele>
        <time>2020-01-14T14:38:17Z</time>
      </trkpt>
      <trkpt lat="43.49105" lon="2.33076">
        <ele>348.52375145257</ele>
        <time>2020-01-14T14:38:22Z</time>
      </trkpt>
      <trkpt lat="43.49108" lon="2.33084">
        <ele>348.52741473913</ele>
        <time>2020-01-14T14:38:33Z</time>
      </trkpt>
      <trkpt lat="43.49115" lon="2.33094">
        <ele>348.93142889626</ele>
        <time>2020-01-14T14:38:37Z</time>
      </trkpt>
      <trkpt lat="43.49121" lon="2.33102">
        <ele>348.89325413387</ele>
        <time>2020-01-14T14:38:42Z</time>
      </trkpt>
      <trkpt lat="43.49125" lon="2.33113">
        <ele>348.24616918154</ele>
        <time>2020-01-14T14:38:51Z</time>
      </trkpt>
      <trkpt lat="43.4913" lon="2.33121">
        <ele>347.83141365834</ele>
        <time>2020-01-14T14:39:01Z</time>
      </trkpt>
      <trkpt lat="43.49136" lon="2.33131">
        <ele>348.76460452937</ele>
        <time>2020-01-14T14:39:09Z</time>
      </trkpt>
      <trkpt lat="43.49141" lon="2.3314">
        <ele>349.14024121966</ele>
        <time>2020-01-14T14:39:17Z</time>
      </trkpt>
      <trkpt lat="43.49147" lon="2.33148">
        <ele>350.88129545841</ele>
        <time>2020-01-14T14:39:26Z</time>
      </trkpt>
      <trkpt lat="43.49153" lon="2.33156">
        <ele>351.68442636356</ele>
        <time>2020-01-14T14:39:36Z</time>
      </trkpt>
      <trkpt lat="43.49157" lon="2.33167">
        <ele>351.87485366222</ele>
        <time>2020-01-14T14:39:44Z</time>
      </trkpt>
      <trkpt lat="43.49162" lon="2.33177">
        <ele>350.68331024144</ele>
        <time>2020-01-14T14:39:52Z</time>
      </trkpt>
      <trkpt lat="43.49167" lon="2.33186">
        <ele>349.59307908639</ele>
        <time>2020-01-14T14:40:03Z</time>
      </trkpt>
      <trkpt lat="43.49173" lon="2.33194">
        <ele>350.97162497882</ele>
        <time>2020-01-14T14:40:12Z</time>
      </trkpt>
      <trkpt lat="43.4918" lon="2.33198">
        <ele>349.9682998918</ele>
        <time>2020-01-14T14:40:20Z</time>
      </trkpt>
      <trkpt lat="43.49186" lon="2.33205">
        <ele>350.88524355274</ele>
        <time>2020-01-14T14:40:29Z</time>
      </trkpt>
      <trkpt lat="43.49192" lon="2.33214">
        <ele>350.480589916</ele>
        <time>2020-01-14T14:40:37Z</time>
      </trkpt>
      <trkpt lat="43.49198" lon="2.33223">
        <ele>349.53724813368</ele>
        <time>2020-01-14T14:40:47Z</time>
      </trkpt>
      <trkpt lat="43.49202" lon="2.33231">
        <ele>349.90107649751</ele>
        <time>2020-01-14T14:40:54Z</time>
      </trkpt>
      <trkpt lat="43.49208" lon="2.3324">
        <ele>348.9030354023</ele>
        <time>2020-01-14T14:41:01Z</time>
      </trkpt>
      <trkpt lat="43.49215" lon="2.33247">
        <ele>349.50025493</ele>
        <time>2020-01-14T14:41:08Z</time>
      </trkpt>
      <trkpt lat="43.4922" lon="2.33254">
        <ele>350.19288668223</ele>
        <time>2020-01-14T14:41:15Z</time>
      </trkpt>
      <trkpt lat="43.49226" lon="2.33263">
        <ele>350.19848719891</ele>
        <time>2020-01-14T14:41:22Z</time>
      </trkpt>
      <trkpt lat="43.4923" lon="2.33274">
        <ele>348.08398234285</ele>
        <time>2020-01-14T14:41:30Z</time>
      </trkpt>
      <trkpt lat="43.49234" lon="2.33283">
        <ele>347.19080437627</ele>
        <time>2020-01-14T14:41:38Z</time>
      </trkpt>
      <trkpt lat="43.49239" lon="2.33292">
        <ele>348.01035264507</ele>
        <time>2020-01-14T14:41:43Z</time>
      </trkpt>
      <trkpt lat="43.49242" lon="2.33302">
        <ele>346.85595797561</ele>
        <time>2020-01-14T14:41:50Z</time>
      </trkpt>
      <trkpt lat="43.49248" lon="2.33312">
        <ele>344.51186234411</ele>
        <time>2020-01-14T14:41:59Z</time>
      </trkpt>
      <trkpt lat="43.49248" lon="2.33323">
        <ele>341.23940547835</ele>
        <time>2020-01-14T14:42:08Z</time>
      </trkpt>
      <trkpt lat="43.49248" lon="2.33335">
        <ele>342.45210187323</ele>
        <time>2020-01-14T14:42:27Z</time>
      </trkpt>
      <trkpt lat="43.49249" lon="2.33346">
        <ele>343.88451839052</ele>
        <time>2020-01-14T14:42:37Z</time>
      </trkpt>
      <trkpt lat="43.4925" lon="2.33358">
        <ele>344.26202556677</ele>
        <time>2020-01-14T14:42:46Z</time>
      </trkpt>
      <trkpt lat="43.49252" lon="2.33369">
        <ele>346.2518225899</ele>
        <time>2020-01-14T14:42:54Z</time>
      </trkpt>
      <trkpt lat="43.49253" lon="2.33381">
        <ele>345.70118030533</ele>
        <time>2020-01-14T14:43:03Z</time>
      </trkpt>
      <trkpt lat="43.49254" lon="2.33392">
        <ele>343.69064564072</ele>
        <time>2020-01-14T14:43:24Z</time>
      </trkpt>
      <trkpt lat="43.49257" lon="2.33402">
        <ele>342.69021613989</ele>
        <time>2020-01-14T14:43:34Z</time>
      </trkpt>
      <trkpt lat="43.49265" lon="2.33406">
        <ele>339.01932950504</ele>
        <time>2020-01-14T14:43:43Z</time>
      </trkpt>
      <trkpt lat="43.49273" lon="2.33403">
        <ele>338.24293189403</ele>
        <time>2020-01-14T14:43:51Z</time>
      </trkpt>
      <trkpt lat="43.49277" lon="2.33393">
        <ele>337.98785965145</ele>
        <time>2020-01-14T14:43:58Z</time>
      </trkpt>
      <trkpt lat="43.49282" lon="2.33383">
        <ele>338.24387401156</ele>
        <time>2020-01-14T14:44:08Z</time>
      </trkpt>
      <trkpt lat="43.49287" lon="2.33375">
        <ele>337.7451966349</ele>
        <time>2020-01-14T14:44:22Z</time>
      </trkpt>
      <trkpt lat="43.49294" lon="2.33367">
        <ele>337.88466847781</ele>
        <time>2020-01-14T14:44:30Z</time>
      </trkpt>
      <trkpt lat="43.49301" lon="2.3336">
        <ele>337.1886970913</ele>
        <time>2020-01-14T14:44:40Z</time>
      </trkpt>
      <trkpt lat="43.49307" lon="2.33352">
        <ele>335.09657407366</ele>
        <time>2020-01-14T14:44:49Z</time>
      </trkpt>
      <trkpt lat="43.49315" lon="2.33349">
        <ele>331.75761616509</ele>
        <time>2020-01-14T14:44:59Z</time>
      </trkpt>
      <trkpt lat="43.49323" lon="2.33344">
        <ele>331.28690615203</ele>
        <time>2020-01-14T14:45:08Z</time>
      </trkpt>
      <trkpt lat="43.4933" lon="2.33338">
        <ele>332.3593408931</ele>
        <time>2020-01-14T14:45:16Z</time>
      </trkpt>
      <trkpt lat="43.49338" lon="2.33333">
        <ele>330.5362241948</ele>
        <time>2020-01-14T14:45:26Z</time>
      </trkpt>
      <trkpt lat="43.49346" lon="2.33327">
        <ele>332.80424654111</ele>
        <time>2020-01-14T14:45:37Z</time>
      </trkpt>
      <trkpt lat="43.49354" lon="2.33325">
        <ele>332.11298486404</ele>
        <time>2020-01-14T14:45:43Z</time>
      </trkpt>
      <trkpt lat="43.49363" lon="2.33324">
        <ele>328.78306835797</ele>
        <time>2020-01-14T14:45:47Z</time>
      </trkpt>
      <trkpt lat="43.4937" lon="2.33318">
        <ele>327.11708906107</ele>
        <time>2020-01-14T14:45:54Z</time>
      </trkpt>
      <trkpt lat="43.49378" lon="2.33316">
        <ele>326.39103995916</ele>
        <time>2020-01-14T14:46:02Z</time>
      </trkpt>
      <trkpt lat="43.49386" lon="2.33313">
        <ele>326.66297003999</ele>
        <time>2020-01-14T14:46:10Z</time>
      </trkpt>
      <trkpt lat="43.49394" lon="2.33315">
        <ele>325.99785004742</ele>
        <time>2020-01-14T14:46:19Z</time>
      </trkpt>
      <trkpt lat="43.494" lon="2.33306">
        <ele>324.67216226459</ele>
        <time>2020-01-14T14:46:28Z</time>
      </trkpt>
      <trkpt lat="43.49406" lon="2.33297">
        <ele>323.41488874797</ele>
        <time>2020-01-14T14:46:37Z</time>
      </trkpt>
      <trkpt lat="43.49409" lon="2.33286">
        <ele>323.164162145</ele>
        <time>2020-01-14T14:46:43Z</time>
      </trkpt>
      <trkpt lat="43.49417" lon="2.33286">
        <ele>325.09525571112</ele>
        <time>2020-01-14T14:46:51Z</time>
      </trkpt>
      <trkpt lat="43.49426" lon="2.33284">
        <ele>325.9985736236</ele>
        <time>2020-01-14T14:46:56Z</time>
      </trkpt>
      <trkpt lat="43.49433" lon="2.33278">
        <ele>322.70314156823</ele>
        <time>2020-01-14T14:47:07Z</time>
      </trkpt>
      <trkpt lat="43.4944" lon="2.33285">
        <ele>320.45592561644</ele>
        <time>2020-01-14T14:47:13Z</time>
      </trkpt>
      <trkpt lat="43.49447" lon="2.33293">
        <ele>319.35120425653</ele>
        <time>2020-01-14T14:47:19Z</time>
      </trkpt>
      <trkpt lat="43.49453" lon="2.33299">
        <ele>319.12980766781</ele>
        <time>2020-01-14T14:47:25Z</time>
      </trkpt>
      <trkpt lat="43.49459" lon="2.33308">
        <ele>316.48736689053</ele>
        <time>2020-01-14T14:47:32Z</time>
      </trkpt>
      <trkpt lat="43.49467" lon="2.33311">
        <ele>312.1607995769</ele>
        <time>2020-01-14T14:47:44Z</time>
      </trkpt>
      <trkpt lat="43.49475" lon="2.33315">
        <ele>311.19167302921</ele>
        <time>2020-01-14T14:47:53Z</time>
      </trkpt>
      <trkpt lat="43.49482" lon="2.33322">
        <ele>311.22307914123</ele>
        <time>2020-01-14T14:48:02Z</time>
      </trkpt>
      <trkpt lat="43.4949" lon="2.33328">
        <ele>310.16113509517</ele>
        <time>2020-01-14T14:48:11Z</time>
      </trkpt>
      <trkpt lat="43.49498" lon="2.33334">
        <ele>309.30676798988</ele>
        <time>2020-01-14T14:48:20Z</time>
      </trkpt>
      <trkpt lat="43.49505" lon="2.33338">
        <ele>309.69549774099</ele>
        <time>2020-01-14T14:48:27Z</time>
      </trkpt>
      <trkpt lat="43.49513" lon="2.33344">
        <ele>307.59182311408</ele>
        <time>2020-01-14T14:48:41Z</time>
      </trkpt>
      <trkpt lat="43.49521" lon="2.3335">
        <ele>307.41760885715</ele>
        <time>2020-01-14T14:48:48Z</time>
      </trkpt>
      <trkpt lat="43.49528" lon="2.33355">
        <ele>308.47498631012</ele>
        <time>2020-01-14T14:48:55Z</time>
      </trkpt>
      <trkpt lat="43.49535" lon="2.33362">
        <ele>308.86117172055</ele>
        <time>2020-01-14T14:49:04Z</time>
      </trkpt>
      <trkpt lat="43.49541" lon="2.33369">
        <ele>307.34503687732</ele>
        <time>2020-01-14T14:49:12Z</time>
      </trkpt>
      <trkpt lat="43.49547" lon="2.33378">
        <ele>307.58209295571</ele>
        <time>2020-01-14T14:49:20Z</time>
      </trkpt>
      <trkpt lat="43.49555" lon="2.33375">
        <ele>309.61094066128</ele>
        <time>2020-01-14T14:54:39Z</time>
      </trkpt>
      <trkpt lat="43.49562" lon="2.3338">
        <ele>311.1295768125</ele>
        <time>2020-01-14T14:54:47Z</time>
      </trkpt>
      <trkpt lat="43.4957" lon="2.33384">
        <ele>309.80746795051</ele>
        <time>2020-01-14T14:54:54Z</time>
      </trkpt>
      <trkpt lat="43.49578" lon="2.33385">
        <ele>308.02084171213</ele>
        <time>2020-01-14T14:55:02Z</time>
      </trkpt>
      <trkpt lat="43.49587" lon="2.33384">
        <ele>306.45270258375</ele>
        <time>2020-01-14T14:55:10Z</time>
      </trkpt>
      <trkpt lat="43.49596" lon="2.33384">
        <ele>305.65931802057</ele>
        <time>2020-01-14T14:55:19Z</time>
      </trkpt>
      <trkpt lat="43.49604" lon="2.33383">
        <ele>305.50190253649</ele>
        <time>2020-01-14T14:55:27Z</time>
      </trkpt>
      <trkpt lat="43.49613" lon="2.33384">
        <ele>304.71474691853</ele>
        <time>2020-01-14T14:55:35Z</time>
      </trkpt>
      <trkpt lat="43.49621" lon="2.33386">
        <ele>303.34598878678</ele>
        <time>2020-01-14T14:55:44Z</time>
      </trkpt>
      <trkpt lat="43.4963" lon="2.33386">
        <ele>300.70961315278</ele>
        <time>2020-01-14T14:55:53Z</time>
      </trkpt>
      <trkpt lat="43.49639" lon="2.33387">
        <ele>300.00806376711</ele>
        <time>2020-01-14T14:55:59Z</time>
      </trkpt>
      <trkpt lat="43.49647" lon="2.33385">
        <ele>299.16856563743</ele>
        <time>2020-01-14T14:56:06Z</time>
      </trkpt>
      <trkpt lat="43.49655" lon="2.33384">
        <ele>298.25277298316</ele>
        <time>2020-01-14T14:56:13Z</time>
      </trkpt>
      <trkpt lat="43.49663" lon="2.3338">
        <ele>298.2504017055</ele>
        <time>2020-01-14T14:56:21Z</time>
      </trkpt>
      <trkpt lat="43.49671" lon="2.3338">
        <ele>295.40372782946</ele>
        <time>2020-01-14T14:56:28Z</time>
      </trkpt>
      <trkpt lat="43.4968" lon="2.33379">
        <ele>291.90828319825</ele>
        <time>2020-01-14T14:56:35Z</time>
      </trkpt>
      <trkpt lat="43.49688" lon="2.33376">
        <ele>291.05981647316</ele>
        <time>2020-01-14T14:56:42Z</time>
      </trkpt>
      <trkpt lat="43.49696" lon="2.33373">
        <ele>290.77371835709</ele>
        <time>2020-01-14T14:56:49Z</time>
      </trkpt>
      <trkpt lat="43.49704" lon="2.33371">
        <ele>290.20230006799</ele>
        <time>2020-01-14T14:56:57Z</time>
      </trkpt>
      <trkpt lat="43.49712" lon="2.33366">
        <ele>289.37956429645</ele>
        <time>2020-01-14T14:57:04Z</time>
      </trkpt>
      <trkpt lat="43.4972" lon="2.33364">
        <ele>288.17688846029</ele>
        <time>2020-01-14T14:57:10Z</time>
      </trkpt>
      <trkpt lat="43.49728" lon="2.33363">
        <ele>286.12070134468</ele>
        <time>2020-01-14T14:57:18Z</time>
      </trkpt>
      <trkpt lat="43.49736" lon="2.33359">
        <ele>284.35610201303</ele>
        <time>2020-01-14T14:57:25Z</time>
      </trkpt>
      <trkpt lat="43.49745" lon="2.33357">
        <ele>283.21079877578</ele>
        <time>2020-01-14T14:57:33Z</time>
      </trkpt>
      <trkpt lat="43.49753" lon="2.33359">
        <ele>282.70348201785</ele>
        <time>2020-01-14T14:57:40Z</time>
      </trkpt>
      <trkpt lat="43.49759" lon="2.33366">
        <ele>282.75801287685</ele>
        <time>2020-01-14T14:57:52Z</time>
      </trkpt>
      <trkpt lat="43.49762" lon="2.33376">
        <ele>283.35791585222</ele>
        <time>2020-01-14T14:57:58Z</time>
      </trkpt>
      <trkpt lat="43.49763" lon="2.33388">
        <ele>283.82732756343</ele>
        <time>2020-01-14T14:58:06Z</time>
      </trkpt>
      <trkpt lat="43.49762" lon="2.33399">
        <ele>283.8656785395</ele>
        <time>2020-01-14T14:58:13Z</time>
      </trkpt>
      <trkpt lat="43.49762" lon="2.3341">
        <ele>283.42653300706</ele>
        <time>2020-01-14T14:58:21Z</time>
      </trkpt>
      <trkpt lat="43.49762" lon="2.33422">
        <ele>282.61587630492</ele>
        <time>2020-01-14T14:58:27Z</time>
      </trkpt>
      <trkpt lat="43.49762" lon="2.33432">
        <ele>281.42253486719</ele>
        <time>2020-01-14T14:58:32Z</time>
      </trkpt>
      <trkpt lat="43.49759" lon="2.33443">
        <ele>280.21286393236</ele>
        <time>2020-01-14T14:58:39Z</time>
      </trkpt>
      <trkpt lat="43.49755" lon="2.33453">
        <ele>280.19649577979</ele>
        <time>2020-01-14T14:58:46Z</time>
      </trkpt>
      <trkpt lat="43.49751" lon="2.33464">
        <ele>278.40699378029</ele>
        <time>2020-01-14T14:58:52Z</time>
      </trkpt>
      <trkpt lat="43.49748" lon="2.33474">
        <ele>276.85371056851</ele>
        <time>2020-01-14T14:58:59Z</time>
      </trkpt>
      <trkpt lat="43.49745" lon="2.33484">
        <ele>276.78134934884</ele>
        <time>2020-01-14T14:59:07Z</time>
      </trkpt>
      <trkpt lat="43.4974" lon="2.33492">
        <ele>276.05346342642</ele>
        <time>2020-01-14T14:59:12Z</time>
      </trkpt>
      <trkpt lat="43.49737" lon="2.33502">
        <ele>275.23667060584</ele>
        <time>2020-01-14T14:59:17Z</time>
      </trkpt>
      <trkpt lat="43.49732" lon="2.33511">
        <ele>273.47737487592</ele>
        <time>2020-01-14T14:59:25Z</time>
      </trkpt>
      <trkpt lat="43.49731" lon="2.33523">
        <ele>271.95811045077</ele>
        <time>2020-01-14T14:59:34Z</time>
      </trkpt>
      <trkpt lat="43.49725" lon="2.3353">
        <ele>270.8651726516</ele>
        <time>2020-01-14T14:59:40Z</time>
      </trkpt>
      <trkpt lat="43.4972" lon="2.3354">
        <ele>270.28904135432</ele>
        <time>2020-01-14T14:59:44Z</time>
      </trkpt>
      <trkpt lat="43.49717" lon="2.3355">
        <ele>269.2997967815</ele>
        <time>2020-01-14T14:59:50Z</time>
      </trkpt>
      <trkpt lat="43.49719" lon="2.33562">
        <ele>268.75529003795</ele>
        <time>2020-01-14T15:00:01Z</time>
      </trkpt>
      <trkpt lat="43.49715" lon="2.33572">
        <ele>270.2929565683</ele>
        <time>2020-01-14T15:00:07Z</time>
      </trkpt>
      <trkpt lat="43.49712" lon="2.33584">
        <ele>270.68241531029</ele>
        <time>2020-01-14T15:00:14Z</time>
      </trkpt>
      <trkpt lat="43.49707" lon="2.33594">
        <ele>270.41920862347</ele>
        <time>2020-01-14T15:00:20Z</time>
      </trkpt>
      <trkpt lat="43.49708" lon="2.33606">
        <ele>272.90152417216</ele>
        <time>2020-01-14T15:00:29Z</time>
      </trkpt>
      <trkpt lat="43.49708" lon="2.33619">
        <ele>273.19946459122</ele>
        <time>2020-01-14T15:00:36Z</time>
      </trkpt>
      <trkpt lat="43.49706" lon="2.33629">
        <ele>272.22287369519</ele>
        <time>2020-01-14T15:00:41Z</time>
      </trkpt>
      <trkpt lat="43.49703" lon="2.33639">
        <ele>269.03635588009</ele>
        <time>2020-01-14T15:00:47Z</time>
      </trkpt>
      <trkpt lat="43.49701" lon="2.3365">
        <ele>267.69518401474</ele>
        <time>2020-01-14T15:00:54Z</time>
      </trkpt>
      <trkpt lat="43.497" lon="2.33661">
        <ele>267.5825621048</ele>
        <time>2020-01-14T15:01:00Z</time>
      </trkpt>
      <trkpt lat="43.49702" lon="2.33673">
        <ele>266.65215716138</ele>
        <time>2020-01-14T15:01:08Z</time>
      </trkpt>
      <trkpt lat="43.497" lon="2.33684">
        <ele>266.09016180504</ele>
        <time>2020-01-14T15:01:13Z</time>
      </trkpt>
      <trkpt lat="43.49699" lon="2.33695">
        <ele>266.11355279759</ele>
        <time>2020-01-14T15:01:21Z</time>
      </trkpt>
      <trkpt lat="43.49697" lon="2.33707">
        <ele>265.4403828783</ele>
        <time>2020-01-14T15:01:29Z</time>
      </trkpt>
      <trkpt lat="43.49693" lon="2.33718">
        <ele>263.63562538009</ele>
        <time>2020-01-14T15:01:38Z</time>
      </trkpt>
      <trkpt lat="43.49693" lon="2.3373">
        <ele>262.53609999735</ele>
        <time>2020-01-14T15:01:49Z</time>
      </trkpt>
      <trkpt lat="43.49688" lon="2.33738">
        <ele>261.73420211114</ele>
        <time>2020-01-14T15:01:54Z</time>
      </trkpt>
      <trkpt lat="43.49683" lon="2.33748">
        <ele>261.88517473731</ele>
        <time>2020-01-14T15:02:00Z</time>
      </trkpt>
      <trkpt lat="43.49676" lon="2.33757">
        <ele>262.74323622137</ele>
        <time>2020-01-14T15:02:04Z</time>
      </trkpt>
      <trkpt lat="43.49671" lon="2.33765">
        <ele>259.9531152565</ele>
        <time>2020-01-14T15:02:17Z</time>
      </trkpt>
      <trkpt lat="43.4967" lon="2.33776">
        <ele>260.1748379115</ele>
        <time>2020-01-14T15:02:22Z</time>
      </trkpt>
      <trkpt lat="43.49666" lon="2.33786">
        <ele>262.47618477698</ele>
        <time>2020-01-14T15:02:28Z</time>
      </trkpt>
      <trkpt lat="43.49667" lon="2.33798">
        <ele>265.90062428452</ele>
        <time>2020-01-14T15:02:42Z</time>
      </trkpt>
      <trkpt lat="43.49669" lon="2.33809">
        <ele>268.44354136568</ele>
        <time>2020-01-14T15:02:51Z</time>
      </trkpt>
      <trkpt lat="43.49673" lon="2.33818">
        <ele>267.95273665059</ele>
        <time>2020-01-14T15:02:56Z</time>
      </trkpt>
      <trkpt lat="43.49676" lon="2.33829">
        <ele>267.48449567612</ele>
        <time>2020-01-14T15:03:02Z</time>
      </trkpt>
      <trkpt lat="43.49679" lon="2.3384">
        <ele>266.48114042915</ele>
        <time>2020-01-14T15:03:09Z</time>
      </trkpt>
      <trkpt lat="43.49681" lon="2.33852">
        <ele>266.95772885066</ele>
        <time>2020-01-14T15:03:16Z</time>
      </trkpt>
      <trkpt lat="43.49683" lon="2.33864">
        <ele>267.84535709303</ele>
        <time>2020-01-14T15:03:22Z</time>
      </trkpt>
      <trkpt lat="43.49684" lon="2.33874">
        <ele>268.68272234965</ele>
        <time>2020-01-14T15:03:27Z</time>
      </trkpt>
      <trkpt lat="43.49683" lon="2.33885">
        <ele>270.07907109894</ele>
        <time>2020-01-14T15:03:32Z</time>
      </trkpt>
      <trkpt lat="43.49685" lon="2.33896">
        <ele>272.9731499562</ele>
        <time>2020-01-14T15:03:40Z</time>
      </trkpt>
      <trkpt lat="43.49686" lon="2.33908">
        <ele>275.80177570414</ele>
        <time>2020-01-14T15:03:49Z</time>
      </trkpt>
      <trkpt lat="43.49686" lon="2.3392">
        <ele>277.15040596947</ele>
        <time>2020-01-14T15:03:56Z</time>
      </trkpt>
      <trkpt lat="43.49686" lon="2.3393">
        <ele>277.98407185078</ele>
        <time>2020-01-14T15:04:03Z</time>
      </trkpt>
      <trkpt lat="43.49687" lon="2.33943">
        <ele>278.02299395949</ele>
        <time>2020-01-14T15:04:11Z</time>
      </trkpt>
      <trkpt lat="43.4969" lon="2.33952">
        <ele>276.28473534714</ele>
        <time>2020-01-14T15:04:17Z</time>
      </trkpt>
      <trkpt lat="43.49695" lon="2.33962">
        <ele>275.31029719673</ele>
        <time>2020-01-14T15:04:24Z</time>
      </trkpt>
      <trkpt lat="43.49701" lon="2.3397">
        <ele>274.01263708901</ele>
        <time>2020-01-14T15:04:31Z</time>
      </trkpt>
      <trkpt lat="43.49704" lon="2.33979">
        <ele>273.77017490473</ele>
        <time>2020-01-14T15:04:39Z</time>
      </trkpt>
      <trkpt lat="43.49707" lon="2.3399">
        <ele>273.32470336743</ele>
        <time>2020-01-14T15:04:46Z</time>
      </trkpt>
      <trkpt lat="43.49708" lon="2.34001">
        <ele>273.43992188573</ele>
        <time>2020-01-14T15:04:54Z</time>
      </trkpt>
      <trkpt lat="43.4971" lon="2.34013">
        <ele>273.4149370743</ele>
        <time>2020-01-14T15:05:02Z</time>
      </trkpt>
      <trkpt lat="43.49714" lon="2.34023">
        <ele>273.58308937028</ele>
        <time>2020-01-14T15:05:09Z</time>
      </trkpt>
      <trkpt lat="43.49717" lon="2.34034">
        <ele>275.50335915759</ele>
        <time>2020-01-14T15:05:16Z</time>
      </trkpt>
      <trkpt lat="43.4972" lon="2.34046">
        <ele>275.9871059414</ele>
        <time>2020-01-14T15:05:23Z</time>
      </trkpt>
      <trkpt lat="43.49718" lon="2.34057">
        <ele>275.1332363477</ele>
        <time>2020-01-14T15:05:30Z</time>
      </trkpt>
      <trkpt lat="43.49719" lon="2.34069">
        <ele>273.94783534296</ele>
        <time>2020-01-14T15:05:38Z</time>
      </trkpt>
      <trkpt lat="43.49719" lon="2.3408">
        <ele>274.21904112119</ele>
        <time>2020-01-14T15:05:46Z</time>
      </trkpt>
      <trkpt lat="43.49722" lon="2.34091">
        <ele>275.30478675757</ele>
        <time>2020-01-14T15:05:53Z</time>
      </trkpt>
      <trkpt lat="43.49723" lon="2.34103">
        <ele>274.22576337308</ele>
        <time>2020-01-14T15:06:02Z</time>
      </trkpt>
      <trkpt lat="43.4972" lon="2.34113">
        <ele>273.59961664025</ele>
        <time>2020-01-14T15:06:08Z</time>
      </trkpt>
      <trkpt lat="43.49718" lon="2.34124">
        <ele>273.75850653835</ele>
        <time>2020-01-14T15:06:15Z</time>
      </trkpt>
      <trkpt lat="43.49715" lon="2.34134">
        <ele>272.24176203366</ele>
        <time>2020-01-14T15:06:21Z</time>
      </trkpt>
      <trkpt lat="43.49724" lon="2.34133">
        <ele>274.73342315387</ele>
        <time>2020-01-14T15:07:05Z</time>
      </trkpt>
      <trkpt lat="43.49732" lon="2.34135">
        <ele>274.11262494884</ele>
        <time>2020-01-14T15:07:14Z</time>
      </trkpt>
      <trkpt lat="43.4974" lon="2.34137">
        <ele>273.82884047925</ele>
        <time>2020-01-14T15:07:23Z</time>
      </trkpt>
      <trkpt lat="43.49749" lon="2.34137">
        <ele>273.52257427108</ele>
        <time>2020-01-14T15:07:31Z</time>
      </trkpt>
      <trkpt lat="43.49757" lon="2.34138">
        <ele>273.03758756537</ele>
        <time>2020-01-14T15:07:39Z</time>
      </trkpt>
      <trkpt lat="43.49766" lon="2.34138">
        <ele>272.80410860199</ele>
        <time>2020-01-14T15:07:48Z</time>
      </trkpt>
      <trkpt lat="43.49774" lon="2.3414">
        <ele>272.29305381048</ele>
        <time>2020-01-14T15:07:56Z</time>
      </trkpt>
      <trkpt lat="43.49782" lon="2.34139">
        <ele>272.42336855922</ele>
        <time>2020-01-14T15:08:03Z</time>
      </trkpt>
      <trkpt lat="43.4979" lon="2.34139">
        <ele>273.68374773022</ele>
        <time>2020-01-14T15:08:10Z</time>
      </trkpt>
      <trkpt lat="43.49799" lon="2.3414">
        <ele>273.32665222045</ele>
        <time>2020-01-14T15:08:17Z</time>
      </trkpt>
      <trkpt lat="43.49807" lon="2.34142">
        <ele>272.09161861334</ele>
        <time>2020-01-14T15:08:24Z</time>
      </trkpt>
      <trkpt lat="43.49815" lon="2.34141">
        <ele>271.05713239685</ele>
        <time>2020-01-14T15:08:31Z</time>
      </trkpt>
      <trkpt lat="43.49823" lon="2.34141">
        <ele>269.54211912956</ele>
        <time>2020-01-14T15:08:38Z</time>
      </trkpt>
      <trkpt lat="43.49832" lon="2.34142">
        <ele>268.71087225247</ele>
        <time>2020-01-14T15:08:45Z</time>
      </trkpt>
      <trkpt lat="43.4984" lon="2.34142">
        <ele>267.68657458853</ele>
        <time>2020-01-14T15:08:52Z</time>
      </trkpt>
      <trkpt lat="43.49849" lon="2.3414">
        <ele>266.82542357873</ele>
        <time>2020-01-14T15:08:58Z</time>
      </trkpt>
      <trkpt lat="43.49857" lon="2.34141">
        <ele>266.32251312677</ele>
        <time>2020-01-14T15:09:05Z</time>
      </trkpt>
      <trkpt lat="43.49866" lon="2.34142">
        <ele>265.08538728766</ele>
        <time>2020-01-14T15:09:13Z</time>
      </trkpt>
      <trkpt lat="43.49874" lon="2.34142">
        <ele>264.9701909693</ele>
        <time>2020-01-14T15:09:22Z</time>
      </trkpt>
      <trkpt lat="43.49883" lon="2.34143">
        <ele>264.64514242206</ele>
        <time>2020-01-14T15:09:28Z</time>
      </trkpt>
      <trkpt lat="43.49891" lon="2.34142">
        <ele>264.09916992951</ele>
        <time>2020-01-14T15:09:35Z</time>
      </trkpt>
      <trkpt lat="43.499" lon="2.34142">
        <ele>264.20518227108</ele>
        <time>2020-01-14T15:09:42Z</time>
      </trkpt>
      <trkpt lat="43.49909" lon="2.34145">
        <ele>263.22025226709</ele>
        <time>2020-01-14T15:09:50Z</time>
      </trkpt>
      <trkpt lat="43.49918" lon="2.34146">
        <ele>261.74849168211</ele>
        <time>2020-01-14T15:09:56Z</time>
      </trkpt>
      <trkpt lat="43.49926" lon="2.34148">
        <ele>261.06834071036</ele>
        <time>2020-01-14T15:10:02Z</time>
      </trkpt>
      <trkpt lat="43.49934" lon="2.34154">
        <ele>262.02681333199</ele>
        <time>2020-01-14T15:10:13Z</time>
      </trkpt>
      <trkpt lat="43.49941" lon="2.34159">
        <ele>260.90355605818</ele>
        <time>2020-01-14T15:10:22Z</time>
      </trkpt>
      <trkpt lat="43.4995" lon="2.34163">
        <ele>260.63034710381</ele>
        <time>2020-01-14T15:10:31Z</time>
      </trkpt>
      <trkpt lat="43.49958" lon="2.34167">
        <ele>259.92049024813</ele>
        <time>2020-01-14T15:10:38Z</time>
      </trkpt>
      <trkpt lat="43.49966" lon="2.34169">
        <ele>258.64807083551</ele>
        <time>2020-01-14T15:10:45Z</time>
      </trkpt>
      <trkpt lat="43.49974" lon="2.34172">
        <ele>257.93889236823</ele>
        <time>2020-01-14T15:10:52Z</time>
      </trkpt>
      <trkpt lat="43.49982" lon="2.34174">
        <ele>257.21023140661</ele>
        <time>2020-01-14T15:10:59Z</time>
      </trkpt>
      <trkpt lat="43.49991" lon="2.34174">
        <ele>257.88768849336</ele>
        <time>2020-01-14T15:11:06Z</time>
      </trkpt>
      <trkpt lat="43.49999" lon="2.34171">
        <ele>257.9609567523</ele>
        <time>2020-01-14T15:11:14Z</time>
      </trkpt>
      <trkpt lat="43.50007" lon="2.34167">
        <ele>256.83474637847</ele>
        <time>2020-01-14T15:11:21Z</time>
      </trkpt>
      <trkpt lat="43.50015" lon="2.34163">
        <ele>255.52368120514</ele>
        <time>2020-01-14T15:11:29Z</time>
      </trkpt>
      <trkpt lat="43.50022" lon="2.3417">
        <ele>253.24214755765</ele>
        <time>2020-01-14T15:11:36Z</time>
      </trkpt>
      <trkpt lat="43.50029" lon="2.34177">
        <ele>251.00463331916</ele>
        <time>2020-01-14T15:11:44Z</time>
      </trkpt>
      <trkpt lat="43.50037" lon="2.34183">
        <ele>250.54816123635</ele>
        <time>2020-01-14T15:11:51Z</time>
      </trkpt>
      <trkpt lat="43.50044" lon="2.3419">
        <ele>250.78832963043</ele>
        <time>2020-01-14T15:11:58Z</time>
      </trkpt>
      <trkpt lat="43.5005" lon="2.34197">
        <ele>249.75271667976</ele>
        <time>2020-01-14T15:12:05Z</time>
      </trkpt>
      <trkpt lat="43.50057" lon="2.34206">
        <ele>247.18645896705</ele>
        <time>2020-01-14T15:12:14Z</time>
      </trkpt>
      <trkpt lat="43.50063" lon="2.34211">
        <ele>245.97422299953</ele>
        <time>2020-01-14T15:12:21Z</time>
      </trkpt>
      <trkpt lat="43.5007" lon="2.34219">
        <ele>244.87201585069</ele>
        <time>2020-01-14T15:12:28Z</time>
      </trkpt>
      <trkpt lat="43.50077" lon="2.34227">
        <ele>242.87258896663</ele>
        <time>2020-01-14T15:12:35Z</time>
      </trkpt>
      <trkpt lat="43.50083" lon="2.34235">
        <ele>241.39720753287</ele>
        <time>2020-01-14T15:12:42Z</time>
      </trkpt>
      <trkpt lat="43.50089" lon="2.34242">
        <ele>239.50765909824</ele>
        <time>2020-01-14T15:12:50Z</time>
      </trkpt>
      <trkpt lat="43.50096" lon="2.34249">
        <ele>238.81153685161</ele>
        <time>2020-01-14T15:12:56Z</time>
      </trkpt>
      <trkpt lat="43.50103" lon="2.34256">
        <ele>238.1374498787</ele>
        <time>2020-01-14T15:13:03Z</time>
      </trkpt>
      <trkpt lat="43.50109" lon="2.34264">
        <ele>238.31558935132</ele>
        <time>2020-01-14T15:13:10Z</time>
      </trkpt>
      <trkpt lat="43.50115" lon="2.34273">
        <ele>238.28282159514</ele>
        <time>2020-01-14T15:13:17Z</time>
      </trkpt>
      <trkpt lat="43.50123" lon="2.34278">
        <ele>238.49387341677</ele>
        <time>2020-01-14T15:13:24Z</time>
      </trkpt>
      <trkpt lat="43.50131" lon="2.34281">
        <ele>238.85345503848</ele>
        <time>2020-01-14T15:13:31Z</time>
      </trkpt>
      <trkpt lat="43.5014" lon="2.3428">
        <ele>240.17647226553</ele>
        <time>2020-01-14T15:13:38Z</time>
      </trkpt>
      <trkpt lat="43.50147" lon="2.34274">
        <ele>240.35004024892</ele>
        <time>2020-01-14T15:13:44Z</time>
      </trkpt>
      <trkpt lat="43.50153" lon="2.34265">
        <ele>240.26421388807</ele>
        <time>2020-01-14T15:13:50Z</time>
      </trkpt>
      <trkpt lat="43.50159" lon="2.34259">
        <ele>239.55703084433</ele>
        <time>2020-01-14T15:13:57Z</time>
      </trkpt>
      <trkpt lat="43.50164" lon="2.34249">
        <ele>238.58376767201</ele>
        <time>2020-01-14T15:14:05Z</time>
      </trkpt>
      <trkpt lat="43.50169" lon="2.34239">
        <ele>237.36512589886</ele>
        <time>2020-01-14T15:14:11Z</time>
      </trkpt>
      <trkpt lat="43.50173" lon="2.3423">
        <ele>237.32286629307</ele>
        <time>2020-01-14T15:14:16Z</time>
      </trkpt>
      <trkpt lat="43.50178" lon="2.34221">
        <ele>237.37450227731</ele>
        <time>2020-01-14T15:14:23Z</time>
      </trkpt>
      <trkpt lat="43.50183" lon="2.34212">
        <ele>236.70527594697</ele>
        <time>2020-01-14T15:14:32Z</time>
      </trkpt>
      <trkpt lat="43.50189" lon="2.34204">
        <ele>237.52816836775</ele>
        <time>2020-01-14T15:14:39Z</time>
      </trkpt>
      <trkpt lat="43.50195" lon="2.34196">
        <ele>239.32164660072</ele>
        <time>2020-01-14T15:14:46Z</time>
      </trkpt>
      <trkpt lat="43.50201" lon="2.34186">
        <ele>240.10794891969</ele>
        <time>2020-01-14T15:14:54Z</time>
      </trkpt>
      <trkpt lat="43.50206" lon="2.34177">
        <ele>241.72471984524</ele>
        <time>2020-01-14T15:15:02Z</time>
      </trkpt>
      <trkpt lat="43.50211" lon="2.34167">
        <ele>242.93971015437</ele>
        <time>2020-01-14T15:15:10Z</time>
      </trkpt>
      <trkpt lat="43.50216" lon="2.34158">
        <ele>243.74691124063</ele>
        <time>2020-01-14T15:15:18Z</time>
      </trkpt>
      <trkpt lat="43.50221" lon="2.34149">
        <ele>243.68939799315</ele>
        <time>2020-01-14T15:15:26Z</time>
      </trkpt>
      <trkpt lat="43.50228" lon="2.34142">
        <ele>244.06139178506</ele>
        <time>2020-01-14T15:15:33Z</time>
      </trkpt>
      <trkpt lat="43.50235" lon="2.34136">
        <ele>244.7504190677</ele>
        <time>2020-01-14T15:15:40Z</time>
      </trkpt>
      <trkpt lat="43.50242" lon="2.34129">
        <ele>243.42037129892</ele>
        <time>2020-01-14T15:15:46Z</time>
      </trkpt>
      <trkpt lat="43.50249" lon="2.34123">
        <ele>244.06900691722</ele>
        <time>2020-01-14T15:15:52Z</time>
      </trkpt>
      <trkpt lat="43.50257" lon="2.34119">
        <ele>244.96999008743</ele>
        <time>2020-01-14T15:15:58Z</time>
      </trkpt>
      <trkpt lat="43.50265" lon="2.34115">
        <ele>244.68343402432</ele>
        <time>2020-01-14T15:16:05Z</time>
      </trkpt>
      <trkpt lat="43.50272" lon="2.3411">
        <ele>243.69802658244</ele>
        <time>2020-01-14T15:16:13Z</time>
      </trkpt>
      <trkpt lat="43.5028" lon="2.34106">
        <ele>242.87140040261</ele>
        <time>2020-01-14T15:16:21Z</time>
      </trkpt>
      <trkpt lat="43.50288" lon="2.34103">
        <ele>241.15774988851</ele>
        <time>2020-01-14T15:16:28Z</time>
      </trkpt>
      <trkpt lat="43.50296" lon="2.341">
        <ele>238.62531729462</ele>
        <time>2020-01-14T15:16:35Z</time>
      </trkpt>
      <trkpt lat="43.50304" lon="2.34099">
        <ele>237.53527112977</ele>
        <time>2020-01-14T15:16:43Z</time>
      </trkpt>
      <trkpt lat="43.50312" lon="2.34095">
        <ele>236.89960279917</ele>
        <time>2020-01-14T15:16:51Z</time>
      </trkpt>
      <trkpt lat="43.50321" lon="2.34091">
        <ele>237.77100560959</ele>
        <time>2020-01-14T15:16:58Z</time>
      </trkpt>
      <trkpt lat="43.50328" lon="2.34085">
        <ele>236.00695904974</ele>
        <time>2020-01-14T15:17:04Z</time>
      </trkpt>
      <trkpt lat="43.50335" lon="2.34082">
        <ele>235.90845125831</ele>
        <time>2020-01-14T15:17:10Z</time>
      </trkpt>
      <trkpt lat="43.50344" lon="2.3408">
        <ele>235.25497702211</ele>
        <time>2020-01-14T15:17:18Z</time>
      </trkpt>
      <trkpt lat="43.50352" lon="2.34077">
        <ele>234.59316979121</ele>
        <time>2020-01-14T15:17:26Z</time>
      </trkpt>
      <trkpt lat="43.5036" lon="2.34076">
        <ele>235.476608346</ele>
        <time>2020-01-14T15:17:33Z</time>
      </trkpt>
      <trkpt lat="43.50368" lon="2.34071">
        <ele>234.25844384694</ele>
        <time>2020-01-14T15:17:41Z</time>
      </trkpt>
      <trkpt lat="43.50375" lon="2.34065">
        <ele>232.39942479605</ele>
        <time>2020-01-14T15:17:48Z</time>
      </trkpt>
      <trkpt lat="43.50383" lon="2.34062">
        <ele>231.56536001296</ele>
        <time>2020-01-14T15:17:54Z</time>
      </trkpt>
      <trkpt lat="43.50391" lon="2.34059">
        <ele>229.44131340917</ele>
        <time>2020-01-14T15:18:00Z</time>
      </trkpt>
      <trkpt lat="43.50399" lon="2.34056">
        <ele>228.05869481955</ele>
        <time>2020-01-14T15:18:08Z</time>
      </trkpt>
      <trkpt lat="43.50408" lon="2.34055">
        <ele>227.17920086843</ele>
        <time>2020-01-14T15:18:17Z</time>
      </trkpt>
      <trkpt lat="43.50415" lon="2.34051">
        <ele>227.51090850626</ele>
        <time>2020-01-14T15:18:24Z</time>
      </trkpt>
      <trkpt lat="43.50423" lon="2.34046">
        <ele>227.12852566967</ele>
        <time>2020-01-14T15:18:31Z</time>
      </trkpt>
      <trkpt lat="43.5043" lon="2.34044">
        <ele>227.27935419025</ele>
        <time>2020-01-14T15:18:37Z</time>
      </trkpt>
      <trkpt lat="43.50438" lon="2.34041">
        <ele>228.09861223778</ele>
        <time>2020-01-14T15:18:45Z</time>
      </trkpt>
      <trkpt lat="43.50446" lon="2.34038">
        <ele>228.32596334928</ele>
        <time>2020-01-14T15:18:53Z</time>
      </trkpt>
      <trkpt lat="43.50454" lon="2.34033">
        <ele>228.31892214816</ele>
        <time>2020-01-14T15:18:59Z</time>
      </trkpt>
      <trkpt lat="43.50462" lon="2.3403">
        <ele>228.14322250997</ele>
        <time>2020-01-14T15:19:07Z</time>
      </trkpt>
      <trkpt lat="43.5047" lon="2.34025">
        <ele>228.187826313</ele>
        <time>2020-01-14T15:19:15Z</time>
      </trkpt>
      <trkpt lat="43.50476" lon="2.34015">
        <ele>225.39460331753</ele>
        <time>2020-01-14T15:19:40Z</time>
      </trkpt>
      <trkpt lat="43.50478" lon="2.34004">
        <ele>225.98603751885</ele>
        <time>2020-01-14T15:19:47Z</time>
      </trkpt>
      <trkpt lat="43.50479" lon="2.34002">
        <ele>226.07535383321</ele>
        <time>2020-01-14T15:19:49Z</time>
      </trkpt>
      <trkpt lat="43.50479" lon="2.34002">
        <ele>226.07535383321</ele>
        <time>2020-01-14T15:19:49Z</time>
      </trkpt>
    </trkseg>
  </trk>
</gpx>